Home > Products > Valid Products > TAF

000
FTUS45 KBOU 060854 AAA
TAFDEN
TAF AMD
KDEN 060854Z 0609/0712 20008KT P6SM SCT120 BKN220
     FM062000 14007KT P6SM FEW220
     FM070200 20008KT P6SM SKC=



000
FTUS45 KBOU 060854 AAA
TAFDEN
TAF AMD
KDEN 060854Z 0609/0712 20008KT P6SM SCT120 BKN220
     FM062000 14007KT P6SM FEW220
     FM070200 20008KT P6SM SKC=



000
FTUS45 KBOU 060521
TAFBJC
TAF
KBJC 060521Z 0606/0706 22006KT P6SM FEW140 FEW200
     FM061800 12007KT P6SM FEW180
     FM070300 28008KT P6SM SKC=



000
FTUS45 KBOU 060521
TAFBJC
TAF
KBJC 060521Z 0606/0706 22006KT P6SM FEW140 FEW200
     FM061800 12007KT P6SM FEW180
     FM070300 28008KT P6SM SKC=



000
FTUS45 KBOU 060521
TAFDEN
TAF
KDEN 060521Z 0606/0712 20008KT P6SM FEW140 SCT220
     FM062000 14007KT P6SM FEW220
     FM070200 20008KT P6SM SKC=



000
FTUS45 KBOU 060521
TAFAPA
TAF
KAPA 060521Z 0606/0706 18007KT P6SM FEW140 SCT220
     FM061900 12007KT P6SM FEW200
     FM070200 17007KT P6SM SKC=



000
FTUS45 KBOU 060521
TAFBJC
TAF
KBJC 060521Z 0606/0706 22006KT P6SM FEW140 FEW200
     FM061800 12007KT P6SM FEW180
     FM070300 28008KT P6SM SKC=



000
FTUS45 KBOU 060521
TAFDEN
TAF
KDEN 060521Z 0606/0712 20008KT P6SM FEW140 SCT220
     FM062000 14007KT P6SM FEW220
     FM070200 20008KT P6SM SKC=



000
FTUS45 KBOU 060521
TAFAPA
TAF
KAPA 060521Z 0606/0706 18007KT P6SM FEW140 SCT220
     FM061900 12007KT P6SM FEW200
     FM070200 17007KT P6SM SKC=



000
FTUS45 KBOU 060304 AAB
TAFDEN
TAF AMD
KDEN 060304Z 0603/0706 21007KT P6SM FEW140 SCT220
     FM062000 14007KT P6SM FEW220
     FM070200 20008KT P6SM SKC=



000
FTUS45 KBOU 060304 AAB
TAFDEN
TAF AMD
KDEN 060304Z 0603/0706 21007KT P6SM FEW140 SCT220
     FM062000 14007KT P6SM FEW220
     FM070200 20008KT P6SM SKC=



000
FTUS45 KBOU 060133 AAA
TAFDEN
TAF AMD
KDEN 060133Z 0602/0706 26006KT P6SM FEW100 SCT140 BKN220
     FM060400 21007KT P6SM SCT220
     FM062000 14007KT P6SM FEW220=



000
FTUS45 KBOU 060133 AAA
TAFDEN
TAF AMD
KDEN 060133Z 0602/0706 26006KT P6SM FEW100 SCT140 BKN220
     FM060400 21007KT P6SM SCT220
     FM062000 14007KT P6SM FEW220=



000
FTUS45 KBOU 060133 AAA
TAFDEN
TAF AMD
KDEN 060133Z 0602/0706 26006KT P6SM FEW100 SCT140 BKN220
     FM060400 21007KT P6SM SCT220
     FM062000 14007KT P6SM FEW220=



000
FTUS45 KBOU 060133 AAA
TAFDEN
TAF AMD
KDEN 060133Z 0602/0706 26006KT P6SM FEW100 SCT140 BKN220
     FM060400 21007KT P6SM SCT220
     FM062000 14007KT P6SM FEW220=



000
FTUS45 KBOU 052340
TAFBJC
TAF
KBJC 052340Z 0600/0624 30008KT P6SM FEW120 BKN200
     FM060600 24008KT P6SM SCT200
     FM061700 14007KT P6SM FEW180=



000
FTUS45 KBOU 052340
TAFAPA
TAF
KAPA 052340Z 0600/0624 06006KT P6SM FEW140 SCT220
     FM060200 18007KT P6SM SCT220
     FM061700 14006KT P6SM FEW200=



000
FTUS45 KBOU 052340
TAFAPA
TAF
KAPA 052340Z 0600/0624 06006KT P6SM FEW140 SCT220
     FM060200 18007KT P6SM SCT220
     FM061700 14006KT P6SM FEW200=



000
FTUS45 KBOU 052340
TAFBJC
TAF
KBJC 052340Z 0600/0624 30008KT P6SM FEW120 BKN200
     FM060600 24008KT P6SM SCT200
     FM061700 14007KT P6SM FEW180=



000
FTUS45 KBOU 052340
TAFDEN
TAF
KDEN 052340Z 0600/0706 30008KT P6SM FEW100 SCT140 BKN220
     FM060200 24007KT P6SM FEW140 SCT220
     FM060600 21008KT P6SM FEW200
     FM062000 14007KT P6SM FEW220=



000
FTUS45 KBOU 052340
TAFDEN
TAF
KDEN 052340Z 0600/0706 30008KT P6SM FEW100 SCT140 BKN220
     FM060200 24007KT P6SM FEW140 SCT220
     FM060600 21008KT P6SM FEW200
     FM062000 14007KT P6SM FEW220=



000
FTUS45 KBOU 052340
TAFDEN
TAF
KDEN 052340Z 0600/0706 30008KT P6SM FEW100 SCT140 BKN220
     FM060200 24007KT P6SM FEW140 SCT220
     FM060600 21008KT P6SM FEW200
     FM062000 14007KT P6SM FEW220=



000
FTUS45 KBOU 052340
TAFDEN
TAF
KDEN 052340Z 0600/0706 30008KT P6SM FEW100 SCT140 BKN220
     FM060200 24007KT P6SM FEW140 SCT220
     FM060600 21008KT P6SM FEW200
     FM062000 14007KT P6SM FEW220=



000
FTUS45 KBOU 052340
TAFAPA
TAF
KAPA 052340Z 0600/0624 06006KT P6SM FEW140 SCT220
     FM060200 18007KT P6SM SCT220
     FM061700 14006KT P6SM FEW200=



000
FTUS45 KBOU 052340
TAFBJC
TAF
KBJC 052340Z 0600/0624 30008KT P6SM FEW120 BKN200
     FM060600 24008KT P6SM SCT200
     FM061700 14007KT P6SM FEW180=



000
FTUS45 KBOU 052340
TAFBJC
TAF
KBJC 052340Z 0600/0624 30008KT P6SM FEW120 BKN200
     FM060600 24008KT P6SM SCT200
     FM061700 14007KT P6SM FEW180=



000
FTUS45 KBOU 052340
TAFAPA
TAF
KAPA 052340Z 0600/0624 06006KT P6SM FEW140 SCT220
     FM060200 18007KT P6SM SCT220
     FM061700 14006KT P6SM FEW200=



000
FTUS45 KBOU 052116 AAB
TAFBJC
TAF AMD
KBJC 052116Z 0521/0618 35008KT P6SM SCT120 BKN200
     FM060200 30010KT P6SM SCT120 BKN200
     FM060700 24008KT P6SM FEW120 SCT200
     FM061200 27012KT P6SM SCT180=



000
FTUS45 KBOU 052116 AAB
TAFBJC
TAF AMD
KBJC 052116Z 0521/0618 35008KT P6SM SCT120 BKN200
     FM060200 30010KT P6SM SCT120 BKN200
     FM060700 24008KT P6SM FEW120 SCT200
     FM061200 27012KT P6SM SCT180=



000
FTUS45 KBOU 052114 AAA
TAFAPA
TAF AMD
KAPA 052114Z 0521/0618 07006KT P6SM BKN140 BKN200
     FM052300 10007KT P6SM SCT140 BKN200
     FM060200 17008KT P6SM SCT200
     FM061400 20006KT P6SM FEW200=



000
FTUS45 KBOU 052114 AAA
TAFAPA
TAF AMD
KAPA 052114Z 0521/0618 07006KT P6SM BKN140 BKN200
     FM052300 10007KT P6SM SCT140 BKN200
     FM060200 17008KT P6SM SCT200
     FM061400 20006KT P6SM FEW200=



000
FTUS45 KBOU 052114 AAA
TAFAPA
TAF AMD
KAPA 052114Z 0521/0618 07006KT P6SM BKN140 BKN200
     FM052300 10007KT P6SM SCT140 BKN200
     FM060200 17008KT P6SM SCT200
     FM061400 20006KT P6SM FEW200=



000
FTUS45 KBOU 052114 AAA
TAFAPA
TAF AMD
KAPA 052114Z 0521/0618 07006KT P6SM BKN140 BKN200
     FM052300 10007KT P6SM SCT140 BKN200
     FM060200 17008KT P6SM SCT200
     FM061400 20006KT P6SM FEW200=



000
FTUS45 KBOU 052101 AAB
TAFDEN
TAF AMD
KDEN 052101Z 0521/0624 03008KT P6SM FEW080 SCT140 BKN220
     FM052300 08007KT P6SM SCT140 BKN220
     FM060200 18008KT P6SM SCT220
     FM060900 24010KT P6SM FEW200=



000
FTUS45 KBOU 052101 AAB
TAFDEN
TAF AMD
KDEN 052101Z 0521/0624 03008KT P6SM FEW080 SCT140 BKN220
     FM052300 08007KT P6SM SCT140 BKN220
     FM060200 18008KT P6SM SCT220
     FM060900 24010KT P6SM FEW200=



000
FTUS45 KBOU 052101 AAB
TAFDEN
TAF AMD
KDEN 052101Z 0521/0624 03008KT P6SM FEW080 SCT140 BKN220
     FM052300 08007KT P6SM SCT140 BKN220
     FM060200 18008KT P6SM SCT220
     FM060900 24010KT P6SM FEW200=



000
FTUS45 KBOU 052101 AAB
TAFDEN
TAF AMD
KDEN 052101Z 0521/0624 03008KT P6SM FEW080 SCT140 BKN220
     FM052300 08007KT P6SM SCT140 BKN220
     FM060200 18008KT P6SM SCT220
     FM060900 24010KT P6SM FEW200=



000
FTUS45 KBOU 051918 AAA
TAFBJC
TAF AMD
KBJC 051918Z 0519/0618 34013KT P6SM SCT100 BKN220
     FM060200 29011KT P6SM SCT100 BKN200
     FM060700 23008KT P6SM FEW120 SCT200
     FM061200 27012KT P6SM SCT180=



000
FTUS45 KBOU 051918 AAA
TAFBJC
TAF AMD
KBJC 051918Z 0519/0618 34013KT P6SM SCT100 BKN220
     FM060200 29011KT P6SM SCT100 BKN200
     FM060700 23008KT P6SM FEW120 SCT200
     FM061200 27012KT P6SM SCT180=



000
FTUS45 KBOU 051748 AAA
TAFDEN
TAF AMD
KDEN 051748Z 0518/0624 04006KT P6SM SCT110 BKN200
     FM052000 09006KT P6SM BKN200
     FM060200 20008KT P6SM SCT200
     FM060900 21010KT P6SM FEW200=



000
FTUS45 KBOU 051748 AAA
TAFDEN
TAF AMD
KDEN 051748Z 0518/0624 04006KT P6SM SCT110 BKN200
     FM052000 09006KT P6SM BKN200
     FM060200 20008KT P6SM SCT200
     FM060900 21010KT P6SM FEW200=



000
FTUS45 KBOU 051748 AAA
TAFDEN
TAF AMD
KDEN 051748Z 0518/0624 04006KT P6SM SCT110 BKN200
     FM052000 09006KT P6SM BKN200
     FM060200 20008KT P6SM SCT200
     FM060900 21010KT P6SM FEW200=



000
FTUS45 KBOU 051748 AAA
TAFDEN
TAF AMD
KDEN 051748Z 0518/0624 04006KT P6SM SCT110 BKN200
     FM052000 09006KT P6SM BKN200
     FM060200 20008KT P6SM SCT200
     FM060900 21010KT P6SM FEW200=



000
FTUS45 KBOU 051735
TAFAPA
TAF
KAPA 051735Z 0518/0618 20006KT P6SM BKN200
     FM052100 06006KT P6SM BKN200
     FM060200 19008KT P6SM SCT200
     FM061200 21008KT P6SM FEW200=



000
FTUS45 KBOU 051735
TAFDEN
TAF
KDEN 051735Z 0518/0624 21006KT P6SM FEW200
     FM052000 16006KT P6SM BKN200
     FM060200 21008KT P6SM SCT200
     FM060900 21010KT P6SM FEW200=



000
FTUS45 KBOU 051735
TAFBJC
TAF
KBJC 051735Z 0518/0618 28012KT P6SM BKN120
     FM060200 24008KT P6SM SCT200
     FM061200 27012KT P6SM SCT180=



000
FTUS45 KBOU 051735
TAFBJC
TAF
KBJC 051735Z 0518/0618 28012KT P6SM BKN120
     FM060200 24008KT P6SM SCT200
     FM061200 27012KT P6SM SCT180=



000
FTUS45 KBOU 051735
TAFAPA
TAF
KAPA 051735Z 0518/0618 20006KT P6SM BKN200
     FM052100 06006KT P6SM BKN200
     FM060200 19008KT P6SM SCT200
     FM061200 21008KT P6SM FEW200=



000
FTUS45 KBOU 051735
TAFDEN
TAF
KDEN 051735Z 0518/0624 21006KT P6SM FEW200
     FM052000 16006KT P6SM BKN200
     FM060200 21008KT P6SM SCT200
     FM060900 21010KT P6SM FEW200=



000
FTUS45 KBOU 051606 AAB
TAFBJC
TAF AMD
KBJC 051606Z 0516/0612 VRB06KT P6SM BKN180
     FM060200 24008KT P6SM SCT200=



000
FTUS45 KBOU 051606 AAB
TAFBJC
TAF AMD
KBJC 051606Z 0516/0612 VRB06KT P6SM BKN180
     FM060200 24008KT P6SM SCT200=



000
FTUS45 KBOU 051606 AAB
TAFBJC
TAF AMD
KBJC 051606Z 0516/0612 VRB06KT P6SM BKN180
     FM060200 24008KT P6SM SCT200=



000
FTUS45 KBOU 051606 AAB
TAFBJC
TAF AMD
KBJC 051606Z 0516/0612 VRB06KT P6SM BKN180
     FM060200 24008KT P6SM SCT200=



000
FTUS45 KBOU 051452 AAA
TAFBJC
TAF AMD
KBJC 051452Z 0515/0612 21006KT P6SM FEW200
     FM051700 10006KT P6SM BKN200
     FM060200 24008KT P6SM SCT200=



000
FTUS45 KBOU 051452 AAA
TAFDEN
TAF AMD
KDEN 051452Z 0515/0618 21012KT P6SM FEW200
     FM052000 16006KT P6SM BKN200
     FM060200 21008KT P6SM SCT200=



000
FTUS45 KBOU 051452 AAA
TAFDEN
TAF AMD
KDEN 051452Z 0515/0618 21012KT P6SM FEW200
     FM052000 16006KT P6SM BKN200
     FM060200 21008KT P6SM SCT200=



000
FTUS45 KBOU 051452 AAA
TAFAPA
TAF AMD
KAPA 051452Z 0515/0612 20006KT P6SM FEW200
     FM052100 06006KT P6SM BKN200
     FM060200 16008KT P6SM SCT200=



000
FTUS45 KBOU 051452 AAA
TAFBJC
TAF AMD
KBJC 051452Z 0515/0612 21006KT P6SM FEW200
     FM051700 10006KT P6SM BKN200
     FM060200 24008KT P6SM SCT200=



000
FTUS45 KBOU 051452 AAA
TAFAPA
TAF AMD
KAPA 051452Z 0515/0612 20006KT P6SM FEW200
     FM052100 06006KT P6SM BKN200
     FM060200 16008KT P6SM SCT200=



000
FTUS45 KBOU 051131
TAFBJC
TAF
KBJC 051131Z 0512/0612 21008KT P6SM FEW200
     FM051700 10006KT P6SM BKN200
     FM060200 24008KT P6SM SCT200=



000
FTUS45 KBOU 051131
TAFAPA
TAF
KAPA 051131Z 0512/0612 18006KT P6SM FEW200
     FM052100 06006KT P6SM BKN200
     FM060200 16008KT P6SM SCT200=



000
FTUS45 KBOU 051131
TAFDEN
TAF
KDEN 051131Z 0512/0618 21012KT P6SM FEW200
     FM052000 16006KT P6SM BKN200
     FM060200 21008KT P6SM SCT200=



000
FTUS45 KBOU 051131
TAFAPA
TAF
KAPA 051131Z 0512/0612 18006KT P6SM FEW200
     FM052100 06006KT P6SM BKN200
     FM060200 16008KT P6SM SCT200=



000
FTUS45 KBOU 051131
TAFDEN
TAF
KDEN 051131Z 0512/0618 21012KT P6SM FEW200
     FM052000 16006KT P6SM BKN200
     FM060200 21008KT P6SM SCT200=



000
FTUS45 KBOU 051131
TAFBJC
TAF
KBJC 051131Z 0512/0612 21008KT P6SM FEW200
     FM051700 10006KT P6SM BKN200
     FM060200 24008KT P6SM SCT200=



000
FTUS45 KBOU 051131
TAFAPA
TAF
KAPA 051131Z 0512/0612 18006KT P6SM FEW200
     FM052100 06006KT P6SM BKN200
     FM060200 16008KT P6SM SCT200=



000
FTUS45 KBOU 051131
TAFDEN
TAF
KDEN 051131Z 0512/0618 21012KT P6SM FEW200
     FM052000 16006KT P6SM BKN200
     FM060200 21008KT P6SM SCT200=



000
FTUS45 KBOU 051131
TAFBJC
TAF
KBJC 051131Z 0512/0612 21008KT P6SM FEW200
     FM051700 10006KT P6SM BKN200
     FM060200 24008KT P6SM SCT200=



000
FTUS45 KBOU 051131
TAFAPA
TAF
KAPA 051131Z 0512/0612 18006KT P6SM FEW200
     FM052100 06006KT P6SM BKN200
     FM060200 16008KT P6SM SCT200=



000
FTUS45 KBOU 051131
TAFBJC
TAF
KBJC 051131Z 0512/0612 21008KT P6SM FEW200
     FM051700 10006KT P6SM BKN200
     FM060200 24008KT P6SM SCT200=



000
FTUS45 KBOU 051131
TAFDEN
TAF
KDEN 051131Z 0512/0618 21012KT P6SM FEW200
     FM052000 16006KT P6SM BKN200
     FM060200 21008KT P6SM SCT200=



000
FTUS45 KBOU 050920 AAA
TAFDEN
TAF AMD
KDEN 050920Z 0509/0612 21010KT P6SM FEW220
     FM052000 16008KT P6SM BKN200
     FM060200 21010KT P6SM SCT200=



000
FTUS45 KBOU 050535
TAFBJC
TAF
KBJC 050535Z 0506/0606 21007KT P6SM FEW080
     FM051000 25010KT P6SM FEW220
     FM051800 12008KT P6SM BKN200
     FM060200 24008KT P6SM SCT200=



000
FTUS45 KBOU 050535
TAFBJC
TAF
KBJC 050535Z 0506/0606 21007KT P6SM FEW080
     FM051000 25010KT P6SM FEW220
     FM051800 12008KT P6SM BKN200
     FM060200 24008KT P6SM SCT200=



000
FTUS45 KBOU 050535
TAFDEN
TAF
KDEN 050535Z 0506/0612 20012KT P6SM FEW100
     FM051500 23008KT P6SM FEW220
     FM052000 16008KT P6SM BKN200
     FM060200 21010KT P6SM SCT200=



000
FTUS45 KBOU 050535
TAFBJC
TAF
KBJC 050535Z 0506/0606 21007KT P6SM FEW080
     FM051000 25010KT P6SM FEW220
     FM051800 12008KT P6SM BKN200
     FM060200 24008KT P6SM SCT200=



000
FTUS45 KBOU 050535
TAFDEN
TAF
KDEN 050535Z 0506/0612 20012KT P6SM FEW100
     FM051500 23008KT P6SM FEW220
     FM052000 16008KT P6SM BKN200
     FM060200 21010KT P6SM SCT200=



000
FTUS45 KBOU 050535
TAFAPA
TAF
KAPA 050535Z 0506/0606 17010KT P6SM SKC
     FM051500 23005KT P6SM FEW220
     FM052000 16007KT P6SM BKN200
     FM060200 17008KT P6SM SCT200=



000
FTUS45 KBOU 050535
TAFDEN
TAF
KDEN 050535Z 0506/0612 20012KT P6SM FEW100
     FM051500 23008KT P6SM FEW220
     FM052000 16008KT P6SM BKN200
     FM060200 21010KT P6SM SCT200=



000
FTUS45 KBOU 050535
TAFAPA
TAF
KAPA 050535Z 0506/0606 17010KT P6SM SKC
     FM051500 23005KT P6SM FEW220
     FM052000 16007KT P6SM BKN200
     FM060200 17008KT P6SM SCT200=



000
FTUS45 KBOU 050535
TAFBJC
TAF
KBJC 050535Z 0506/0606 21007KT P6SM FEW080
     FM051000 25010KT P6SM FEW220
     FM051800 12008KT P6SM BKN200
     FM060200 24008KT P6SM SCT200=



000
FTUS45 KBOU 050535
TAFAPA
TAF
KAPA 050535Z 0506/0606 17010KT P6SM SKC
     FM051500 23005KT P6SM FEW220
     FM052000 16007KT P6SM BKN200
     FM060200 17008KT P6SM SCT200=



000
FTUS45 KBOU 050535
TAFAPA
TAF
KAPA 050535Z 0506/0606 17010KT P6SM SKC
     FM051500 23005KT P6SM FEW220
     FM052000 16007KT P6SM BKN200
     FM060200 17008KT P6SM SCT200=



000
FTUS45 KBOU 050535
TAFDEN
TAF
KDEN 050535Z 0506/0612 20012KT P6SM FEW100
     FM051500 23008KT P6SM FEW220
     FM052000 16008KT P6SM BKN200
     FM060200 21010KT P6SM SCT200=



000
FTUS45 KBOU 050232 AAA
TAFDEN
TAF AMD
KDEN 050232Z 0503/0606 20010KT P6SM FEW070
     FM050500 21012KT P6SM SKC
     FM051500 23008KT P6SM FEW220
     FM051900 16008KT P6SM BKN200
     FM060200 21010KT P6SM SCT200=



000
FTUS45 KBOU 050232 AAA
TAFDEN
TAF AMD
KDEN 050232Z 0503/0606 20010KT P6SM FEW070
     FM050500 21012KT P6SM SKC
     FM051500 23008KT P6SM FEW220
     FM051900 16008KT P6SM BKN200
     FM060200 21010KT P6SM SCT200=



000
FTUS45 KBOU 042337
TAFAPA
TAF
KAPA 042337Z 0500/0524 14006KT P6SM SCT035 BKN060
     FM050200 16007KT P6SM SCT070
     FM050500 19007KT P6SM SKC
     FM051500 23005KT P6SM FEW220
     FM051900 16007KT P6SM BKN200=



000
FTUS45 KBOU 042337
TAFBJC
TAF
KBJC 042337Z 0500/0524 04003KT 4SM -SN BR BKN016 OVC030
     FM050100 VRB03KT P6SM SCT024 BKN040
     FM050200 VRB03KT P6SM SCT050
     FM051000 25010KT P6SM FEW220
     FM051700 12008KT P6SM BKN200=



000
FTUS45 KBOU 042337
TAFAPA
TAF
KAPA 042337Z 0500/0524 14006KT P6SM SCT035 BKN060
     FM050200 16007KT P6SM SCT070
     FM050500 19007KT P6SM SKC
     FM051500 23005KT P6SM FEW220
     FM051900 16007KT P6SM BKN200=



000
FTUS45 KBOU 042337
TAFBJC
TAF
KBJC 042337Z 0500/0524 04003KT 4SM -SN BR BKN016 OVC030
     FM050100 VRB03KT P6SM SCT024 BKN040
     FM050200 VRB03KT P6SM SCT050
     FM051000 25010KT P6SM FEW220
     FM051700 12008KT P6SM BKN200=



000
FTUS45 KBOU 042337
TAFDEN
TAF
KDEN 042337Z 0500/0606 15007KT P6SM SCT035 BKN060
     FM050200 17007KT P6SM SCT070
     FM050500 21012KT P6SM SKC
     FM051500 23008KT P6SM FEW220
     FM051900 16008KT P6SM BKN200
     FM060200 21010KT P6SM SCT200=



000
FTUS45 KBOU 042337
TAFDEN
TAF
KDEN 042337Z 0500/0606 15007KT P6SM SCT035 BKN060
     FM050200 17007KT P6SM SCT070
     FM050500 21012KT P6SM SKC
     FM051500 23008KT P6SM FEW220
     FM051900 16008KT P6SM BKN200
     FM060200 21010KT P6SM SCT200=



000
FTUS45 KBOU 042337
TAFBJC
TAF
KBJC 042337Z 0500/0524 04003KT 4SM -SN BR BKN016 OVC030
     FM050100 VRB03KT P6SM SCT024 BKN040
     FM050200 VRB03KT P6SM SCT050
     FM051000 25010KT P6SM FEW220
     FM051700 12008KT P6SM BKN200=



000
FTUS45 KBOU 042337
TAFDEN
TAF
KDEN 042337Z 0500/0606 15007KT P6SM SCT035 BKN060
     FM050200 17007KT P6SM SCT070
     FM050500 21012KT P6SM SKC
     FM051500 23008KT P6SM FEW220
     FM051900 16008KT P6SM BKN200
     FM060200 21010KT P6SM SCT200=



000
FTUS45 KBOU 042337
TAFAPA
TAF
KAPA 042337Z 0500/0524 14006KT P6SM SCT035 BKN060
     FM050200 16007KT P6SM SCT070
     FM050500 19007KT P6SM SKC
     FM051500 23005KT P6SM FEW220
     FM051900 16007KT P6SM BKN200=



000
FTUS45 KBOU 042337
TAFDEN
TAF
KDEN 042337Z 0500/0606 15007KT P6SM SCT035 BKN060
     FM050200 17007KT P6SM SCT070
     FM050500 21012KT P6SM SKC
     FM051500 23008KT P6SM FEW220
     FM051900 16008KT P6SM BKN200
     FM060200 21010KT P6SM SCT200=



000
FTUS45 KBOU 042337
TAFBJC
TAF
KBJC 042337Z 0500/0524 04003KT 4SM -SN BR BKN016 OVC030
     FM050100 VRB03KT P6SM SCT024 BKN040
     FM050200 VRB03KT P6SM SCT050
     FM051000 25010KT P6SM FEW220
     FM051700 12008KT P6SM BKN200=



000
FTUS45 KBOU 042337
TAFAPA
TAF
KAPA 042337Z 0500/0524 14006KT P6SM SCT035 BKN060
     FM050200 16007KT P6SM SCT070
     FM050500 19007KT P6SM SKC
     FM051500 23005KT P6SM FEW220
     FM051900 16007KT P6SM BKN200=



000
FTUS45 KBOU 042221 AAB
TAFBJC
TAF AMD
KBJC 042221Z 0422/0518 02007KT 5SM -SN BR SCT010 BKN020 OVC030
      TEMPO 0422/0424 2SM -SN BR OVC009
     FM050000 11007KT P6SM SCT012 BKN025
     FM050300 21007KT P6SM FEW050
     FM051500 25010KT P6SM FEW220=



000
FTUS45 KBOU 042221 AAB
TAFBJC
TAF AMD
KBJC 042221Z 0422/0518 02007KT 5SM -SN BR SCT010 BKN020 OVC030
      TEMPO 0422/0424 2SM -SN BR OVC009
     FM050000 11007KT P6SM SCT012 BKN025
     FM050300 21007KT P6SM FEW050
     FM051500 25010KT P6SM FEW220=



000
FTUS45 KBOU 042047 AAB
TAFAPA
TAF AMD
KAPA 042047Z 0421/0518 09007KT P6SM SCT025 BKN050
      TEMPO 0421/0424 4SM -SN SCT008 OVC025
     FM050000 12008KT P6SM FEW050 SCT220
     FM050200 19008KT P6SM FEW070
     FM051700 17008KT P6SM FEW120=



000
FTUS45 KBOU 042047 AAB
TAFAPA
TAF AMD
KAPA 042047Z 0421/0518 09007KT P6SM SCT025 BKN050
      TEMPO 0421/0424 4SM -SN SCT008 OVC025
     FM050000 12008KT P6SM FEW050 SCT220
     FM050200 19008KT P6SM FEW070
     FM051700 17008KT P6SM FEW120=



000
FTUS45 KBOU 042047 AAB
TAFAPA
TAF AMD
KAPA 042047Z 0421/0518 09007KT P6SM SCT025 BKN050
      TEMPO 0421/0424 4SM -SN SCT008 OVC025
     FM050000 12008KT P6SM FEW050 SCT220
     FM050200 19008KT P6SM FEW070
     FM051700 17008KT P6SM FEW120=



000
FTUS45 KBOU 042041 AAB
TAFDEN
TAF AMD
KDEN 042041Z 0421/0524 13007KT P6SM SCT025 BKN050
      TEMPO 0421/0423 5SM -SN BR OVC025
     FM050000 14009KT P6SM FEW030 SCT050
     FM050200 16008KT P6SM SCT070
     FM050600 21012KT P6SM FEW200
     FM051800 17012KT P6SM FEW220=



000
FTUS45 KBOU 042041 AAB
TAFDEN
TAF AMD
KDEN 042041Z 0421/0524 13007KT P6SM SCT025 BKN050
      TEMPO 0421/0423 5SM -SN BR OVC025
     FM050000 14009KT P6SM FEW030 SCT050
     FM050200 16008KT P6SM SCT070
     FM050600 21012KT P6SM FEW200
     FM051800 17012KT P6SM FEW220=



000
FTUS45 KBOU 042041 AAB
TAFDEN
TAF AMD
KDEN 042041Z 0421/0524 13007KT P6SM SCT025 BKN050
      TEMPO 0421/0423 5SM -SN BR OVC025
     FM050000 14009KT P6SM FEW030 SCT050
     FM050200 16008KT P6SM SCT070
     FM050600 21012KT P6SM FEW200
     FM051800 17012KT P6SM FEW220=



000
FTUS45 KBOU 042041 AAB
TAFDEN
TAF AMD
KDEN 042041Z 0421/0524 13007KT P6SM SCT025 BKN050
      TEMPO 0421/0423 5SM -SN BR OVC025
     FM050000 14009KT P6SM FEW030 SCT050
     FM050200 16008KT P6SM SCT070
     FM050600 21012KT P6SM FEW200
     FM051800 17012KT P6SM FEW220=



000
FTUS45 KBOU 042009 AAA
TAFBJC
TAF AMD
KBJC 042009Z 0420/0518 09007KT P6SM SCT010 BKN020 OVC030
      TEMPO 0420/0422 4SM -SN BR
     FM042200 11007KT P6SM FEW030 SCT060
     FM050300 21007KT P6SM FEW100
     FM051500 25010KT P6SM FEW220=



000
FTUS45 KBOU 042009 AAA
TAFBJC
TAF AMD
KBJC 042009Z 0420/0518 09007KT P6SM SCT010 BKN020 OVC030
      TEMPO 0420/0422 4SM -SN BR
     FM042200 11007KT P6SM FEW030 SCT060
     FM050300 21007KT P6SM FEW100
     FM051500 25010KT P6SM FEW220=



000
FTUS45 KBOU 041955 AAA
TAFAPA
TAF AMD
KAPA 041955Z 0420/0518 10008KT P6SM FEW025 SCT070 SCT200
      TEMPO 0420/0422 BKN025
     FM042200 07008KT P6SM FEW050 SCT220
     FM050200 19008KT P6SM FEW070
     FM051700 17008KT P6SM FEW120=



000
FTUS45 KBOU 041955 AAA
TAFAPA
TAF AMD
KAPA 041955Z 0420/0518 10008KT P6SM FEW025 SCT070 SCT200
      TEMPO 0420/0422 BKN025
     FM042200 07008KT P6SM FEW050 SCT220
     FM050200 19008KT P6SM FEW070
     FM051700 17008KT P6SM FEW120=



000
FTUS45 KBOU 041955 AAA
TAFAPA
TAF AMD
KAPA 041955Z 0420/0518 10008KT P6SM FEW025 SCT070 SCT200
      TEMPO 0420/0422 BKN025
     FM042200 07008KT P6SM FEW050 SCT220
     FM050200 19008KT P6SM FEW070
     FM051700 17008KT P6SM FEW120=



000
FTUS45 KBOU 041910 AAA
TAFDEN
TAF AMD
KDEN 041910Z 0419/0524 11008KT P6SM FEW030 SCT060 SCT220
     FM050200 18009KT P6SM FEW070
     FM050600 21012KT P6SM FEW200
     FM051800 17012KT P6SM FEW220=



000
FTUS45 KBOU 041910 AAA
TAFDEN
TAF AMD
KDEN 041910Z 0419/0524 11008KT P6SM FEW030 SCT060 SCT220
     FM050200 18009KT P6SM FEW070
     FM050600 21012KT P6SM FEW200
     FM051800 17012KT P6SM FEW220=



000
FTUS45 KBOU 041910 AAA
TAFDEN
TAF AMD
KDEN 041910Z 0419/0524 11008KT P6SM FEW030 SCT060 SCT220
     FM050200 18009KT P6SM FEW070
     FM050600 21012KT P6SM FEW200
     FM051800 17012KT P6SM FEW220=



000
FTUS45 KBOU 041910 AAA
TAFDEN
TAF AMD
KDEN 041910Z 0419/0524 11008KT P6SM FEW030 SCT060 SCT220
     FM050200 18009KT P6SM FEW070
     FM050600 21012KT P6SM FEW200
     FM051800 17012KT P6SM FEW220=



000
FTUS45 KBOU 041723
TAFBJC
TAF
KBJC 041723Z 0418/0518 09007KT P6SM SCT010 BKN020 OVC030
      TEMPO 0418/0420 5SM -SN BR
     FM042200 11007KT P6SM FEW030 SCT060
     FM050300 21007KT P6SM FEW100
     FM051500 25010KT P6SM FEW220=



000
FTUS45 KBOU 041723
TAFDEN
TAF
KDEN 041723Z 0418/0524 09008KT P6SM FEW025 SCT050 BKN200
     FM042100 11008KT P6SM FEW030 SCT060 SCT220
     FM050200 18009KT P6SM FEW070
     FM050600 21012KT P6SM FEW200
     FM051800 17012KT P6SM FEW220=



000
FTUS45 KBOU 041723
TAFAPA
TAF
KAPA 041723Z 0418/0518 09005KT P6SM SCT030 BKN070
     FM041900 10008KT P6SM FEW025 SCT070 SCT200
     FM042200 07008KT P6SM FEW050 SCT220
     FM050200 19008KT P6SM FEW070
     FM051700 17008KT P6SM FEW120=



000
FTUS45 KBOU 041723
TAFDEN
TAF
KDEN 041723Z 0418/0524 09008KT P6SM FEW025 SCT050 BKN200
     FM042100 11008KT P6SM FEW030 SCT060 SCT220
     FM050200 18009KT P6SM FEW070
     FM050600 21012KT P6SM FEW200
     FM051800 17012KT P6SM FEW220=



000
FTUS45 KBOU 041723
TAFBJC
TAF
KBJC 041723Z 0418/0518 09007KT P6SM SCT010 BKN020 OVC030
      TEMPO 0418/0420 5SM -SN BR
     FM042200 11007KT P6SM FEW030 SCT060
     FM050300 21007KT P6SM FEW100
     FM051500 25010KT P6SM FEW220=



000
FTUS45 KBOU 041723
TAFAPA
TAF
KAPA 041723Z 0418/0518 09005KT P6SM SCT030 BKN070
     FM041900 10008KT P6SM FEW025 SCT070 SCT200
     FM042200 07008KT P6SM FEW050 SCT220
     FM050200 19008KT P6SM FEW070
     FM051700 17008KT P6SM FEW120=



000
FTUS45 KBOU 041723
TAFBJC
TAF
KBJC 041723Z 0418/0518 09007KT P6SM SCT010 BKN020 OVC030
      TEMPO 0418/0420 5SM -SN BR
     FM042200 11007KT P6SM FEW030 SCT060
     FM050300 21007KT P6SM FEW100
     FM051500 25010KT P6SM FEW220=



000
FTUS45 KBOU 041723
TAFDEN
TAF
KDEN 041723Z 0418/0524 09008KT P6SM FEW025 SCT050 BKN200
     FM042100 11008KT P6SM FEW030 SCT060 SCT220
     FM050200 18009KT P6SM FEW070
     FM050600 21012KT P6SM FEW200
     FM051800 17012KT P6SM FEW220=



000
FTUS45 KBOU 041723
TAFAPA
TAF
KAPA 041723Z 0418/0518 09005KT P6SM SCT030 BKN070
     FM041900 10008KT P6SM FEW025 SCT070 SCT200
     FM042200 07008KT P6SM FEW050 SCT220
     FM050200 19008KT P6SM FEW070
     FM051700 17008KT P6SM FEW120=



000
FTUS45 KBOU 041723
TAFDEN
TAF
KDEN 041723Z 0418/0524 09008KT P6SM FEW025 SCT050 BKN200
     FM042100 11008KT P6SM FEW030 SCT060 SCT220
     FM050200 18009KT P6SM FEW070
     FM050600 21012KT P6SM FEW200
     FM051800 17012KT P6SM FEW220=



000
FTUS45 KBOU 041723
TAFBJC
TAF
KBJC 041723Z 0418/0518 09007KT P6SM SCT010 BKN020 OVC030
      TEMPO 0418/0420 5SM -SN BR
     FM042200 11007KT P6SM FEW030 SCT060
     FM050300 21007KT P6SM FEW100
     FM051500 25010KT P6SM FEW220=



000
FTUS45 KBOU 041723
TAFAPA
TAF
KAPA 041723Z 0418/0518 09005KT P6SM SCT030 BKN070
     FM041900 10008KT P6SM FEW025 SCT070 SCT200
     FM042200 07008KT P6SM FEW050 SCT220
     FM050200 19008KT P6SM FEW070
     FM051700 17008KT P6SM FEW120=



000
FTUS45 KBOU 041613 AAE
TAFDEN
TAF AMD
KDEN 041613Z 0416/0518 07008KT P6SM VCSH SCT020 BKN040
     FM041800 09008KT P6SM FEW025 BKN050
     FM042100 09008KT P6SM FEW030 SCT060
     FM050200 16009KT P6SM FEW070
     FM050600 21012KT P6SM FEW200=



000
FTUS45 KBOU 041613 AAE
TAFDEN
TAF AMD
KDEN 041613Z 0416/0518 07008KT P6SM VCSH SCT020 BKN040
     FM041800 09008KT P6SM FEW025 BKN050
     FM042100 09008KT P6SM FEW030 SCT060
     FM050200 16009KT P6SM FEW070
     FM050600 21012KT P6SM FEW200=



000
FTUS45 KBOU 041613 AAE
TAFDEN
TAF AMD
KDEN 041613Z 0416/0518 07008KT P6SM VCSH SCT020 BKN040
     FM041800 09008KT P6SM FEW025 BKN050
     FM042100 09008KT P6SM FEW030 SCT060
     FM050200 16009KT P6SM FEW070
     FM050600 21012KT P6SM FEW200=



000
FTUS45 KBOU 041613 AAE
TAFDEN
TAF AMD
KDEN 041613Z 0416/0518 07008KT P6SM VCSH SCT020 BKN040
     FM041800 09008KT P6SM FEW025 BKN050
     FM042100 09008KT P6SM FEW030 SCT060
     FM050200 16009KT P6SM FEW070
     FM050600 21012KT P6SM FEW200=



000
FTUS45 KBOU 041505 AAD
TAFDEN
TAF AMD
KDEN 041505Z 0415/0518 06008KT P6SM VCSH SCT020 BKN040
      TEMPO 0415/0416 2SM -SN BR
     FM041800 07008KT P6SM FEW025 BKN050
     FM042100 09008KT P6SM FEW030 SCT060
     FM050200 16009KT P6SM FEW070
     FM050600 21012KT P6SM FEW200=



000
FTUS45 KBOU 041505 AAA
TAFAPA
TAF AMD
KAPA 041505Z 0415/0512 04005KT 4SM -SN BR SCT015 OVC025
     FM041600 04005KT P6SM VCSH SCT020 BKN030
     FM041900 07008KT P6SM FEW025 BKN050
     FM042200 09008KT P6SM FEW030 SCT060
     FM050200 17008KT P6SM FEW070=



000
FTUS45 KBOU 041505 AAD
TAFDEN
TAF AMD
KDEN 041505Z 0415/0518 06008KT P6SM VCSH SCT020 BKN040
      TEMPO 0415/0416 2SM -SN BR
     FM041800 07008KT P6SM FEW025 BKN050
     FM042100 09008KT P6SM FEW030 SCT060
     FM050200 16009KT P6SM FEW070
     FM050600 21012KT P6SM FEW200=



000
FTUS45 KBOU 041505 AAA
TAFBJC
TAF AMD
KBJC 041505Z 0415/0512 05007KT P6SM SCT020 OVC030
      TEMPO 0415/0417 4SM -SN BR
     FM042200 11007KT P6SM FEW030 SCT060
     FM050300 25007KT P6SM FEW070=



000
FTUS45 KBOU 041505 AAD
TAFDEN
TAF AMD
KDEN 041505Z 0415/0518 06008KT P6SM VCSH SCT020 BKN040
      TEMPO 0415/0416 2SM -SN BR
     FM041800 07008KT P6SM FEW025 BKN050
     FM042100 09008KT P6SM FEW030 SCT060
     FM050200 16009KT P6SM FEW070
     FM050600 21012KT P6SM FEW200=



000
FTUS45 KBOU 041505 AAA
TAFAPA
TAF AMD
KAPA 041505Z 0415/0512 04005KT 4SM -SN BR SCT015 OVC025
     FM041600 04005KT P6SM VCSH SCT020 BKN030
     FM041900 07008KT P6SM FEW025 BKN050
     FM042200 09008KT P6SM FEW030 SCT060
     FM050200 17008KT P6SM FEW070=



000
FTUS45 KBOU 041505 AAA
TAFBJC
TAF AMD
KBJC 041505Z 0415/0512 05007KT P6SM SCT020 OVC030
      TEMPO 0415/0417 4SM -SN BR
     FM042200 11007KT P6SM FEW030 SCT060
     FM050300 25007KT P6SM FEW070=



000
FTUS45 KBOU 041505 AAA
TAFBJC
TAF AMD
KBJC 041505Z 0415/0512 05007KT P6SM SCT020 OVC030
      TEMPO 0415/0417 4SM -SN BR
     FM042200 11007KT P6SM FEW030 SCT060
     FM050300 25007KT P6SM FEW070=



000
FTUS45 KBOU 041505 AAA
TAFAPA
TAF AMD
KAPA 041505Z 0415/0512 04005KT 4SM -SN BR SCT015 OVC025
     FM041600 04005KT P6SM VCSH SCT020 BKN030
     FM041900 07008KT P6SM FEW025 BKN050
     FM042200 09008KT P6SM FEW030 SCT060
     FM050200 17008KT P6SM FEW070=



000
FTUS45 KBOU 041155
TAFBJC
TAF
KBJC 041155Z 0412/0512 05007KT P6SM SCT020 OVC040
      TEMPO 0412/0414 3SM -SN BR BKN020
     FM042200 11007KT P6SM FEW030 SCT060
     FM050300 25007KT P6SM FEW070=



000
FTUS45 KBOU 041155
TAFAPA
TAF
KAPA 041155Z 0412/0512 04008KT 2SM -SN BR SCT008 OVC015
     FM041400 04005KT 4SM -SN BR SCT015 OVC025
     FM041600 04005KT P6SM VCSH SCT020 BKN030
     FM041900 07008KT P6SM FEW025 BKN050
     FM042200 09008KT P6SM FEW030 SCT060
     FM050200 17008KT P6SM FEW070=



000
FTUS45 KBOU 041155
TAFBJC
TAF
KBJC 041155Z 0412/0512 05007KT P6SM SCT020 OVC040
      TEMPO 0412/0414 3SM -SN BR BKN020
     FM042200 11007KT P6SM FEW030 SCT060
     FM050300 25007KT P6SM FEW070=



000
FTUS45 KBOU 041155
TAFAPA
TAF
KAPA 041155Z 0412/0512 04008KT 2SM -SN BR SCT008 OVC015
     FM041400 04005KT 4SM -SN BR SCT015 OVC025
     FM041600 04005KT P6SM VCSH SCT020 BKN030
     FM041900 07008KT P6SM FEW025 BKN050
     FM042200 09008KT P6SM FEW030 SCT060
     FM050200 17008KT P6SM FEW070=



000
FTUS45 KBOU 041155
TAFBJC
TAF
KBJC 041155Z 0412/0512 05007KT P6SM SCT020 OVC040
      TEMPO 0412/0414 3SM -SN BR BKN020
     FM042200 11007KT P6SM FEW030 SCT060
     FM050300 25007KT P6SM FEW070=



000
FTUS45 KBOU 041155
TAFAPA
TAF
KAPA 041155Z 0412/0512 04008KT 2SM -SN BR SCT008 OVC015
     FM041400 04005KT 4SM -SN BR SCT015 OVC025
     FM041600 04005KT P6SM VCSH SCT020 BKN030
     FM041900 07008KT P6SM FEW025 BKN050
     FM042200 09008KT P6SM FEW030 SCT060
     FM050200 17008KT P6SM FEW070=



000
FTUS45 KBOU 041155
TAFAPA
TAF
KAPA 041155Z 0412/0512 04008KT 2SM -SN BR SCT008 OVC015
     FM041400 04005KT 4SM -SN BR SCT015 OVC025
     FM041600 04005KT P6SM VCSH SCT020 BKN030
     FM041900 07008KT P6SM FEW025 BKN050
     FM042200 09008KT P6SM FEW030 SCT060
     FM050200 17008KT P6SM FEW070=



000
FTUS45 KBOU 041155
TAFBJC
TAF
KBJC 041155Z 0412/0512 05007KT P6SM SCT020 OVC040
      TEMPO 0412/0414 3SM -SN BR BKN020
     FM042200 11007KT P6SM FEW030 SCT060
     FM050300 25007KT P6SM FEW070=



000
FTUS45 KBOU 041141 AAC
TAFDEN
TAF AMD
KDEN 041141Z 0412/0512 03010KT 3SM -SN BR SCT015 OVC035
      TEMPO 0412/0413 2SM -SN BR BKN015
     FM041400 06008KT P6SM VCSH SCT020 BKN040
     FM041800 07008KT P6SM FEW025 BKN050
     FM042100 09008KT P6SM FEW030 SCT060
     FM050200 16009KT P6SM FEW070
     FM050600 21012KT P6SM FEW200=



000
FTUS45 KBOU 041141 AAC
TAFDEN
TAF AMD
KDEN 041141Z 0412/0512 03010KT 3SM -SN BR SCT015 OVC035
      TEMPO 0412/0413 2SM -SN BR BKN015
     FM041400 06008KT P6SM VCSH SCT020 BKN040
     FM041800 07008KT P6SM FEW025 BKN050
     FM042100 09008KT P6SM FEW030 SCT060
     FM050200 16009KT P6SM FEW070
     FM050600 21012KT P6SM FEW200=



000
FTUS45 KBOU 041141 AAC
TAFDEN
TAF AMD
KDEN 041141Z 0412/0512 03010KT 3SM -SN BR SCT015 OVC035
      TEMPO 0412/0413 2SM -SN BR BKN015
     FM041400 06008KT P6SM VCSH SCT020 BKN040
     FM041800 07008KT P6SM FEW025 BKN050
     FM042100 09008KT P6SM FEW030 SCT060
     FM050200 16009KT P6SM FEW070
     FM050600 21012KT P6SM FEW200=



000
FTUS45 KBOU 041141 AAC
TAFDEN
TAF AMD
KDEN 041141Z 0412/0512 03010KT 3SM -SN BR SCT015 OVC035
      TEMPO 0412/0413 2SM -SN BR BKN015
     FM041400 06008KT P6SM VCSH SCT020 BKN040
     FM041800 07008KT P6SM FEW025 BKN050
     FM042100 09008KT P6SM FEW030 SCT060
     FM050200 16009KT P6SM FEW070
     FM050600 21012KT P6SM FEW200=



000
FTUS45 KBOU 041023 AAC
TAFBJC
TAF AMD
KBJC 041023Z 0410/0506 02008KT 6SM -SN BR SCT012 OVC025
      TEMPO 0410/0412 3SM -SN BR BKN012
     FM041300 06008KT P6SM VCSH SCT016 BKN025 OVC040
     FM041800 07008KT P6SM SCT025 BKN050
     FM042100 11008KT P6SM FEW030 SCT050
     FM050200 16009KT P6SM SKC=



000
FTUS45 KBOU 041023 AAC
TAFBJC
TAF AMD
KBJC 041023Z 0410/0506 02008KT 6SM -SN BR SCT012 OVC025
      TEMPO 0410/0412 3SM -SN BR BKN012
     FM041300 06008KT P6SM VCSH SCT016 BKN025 OVC040
     FM041800 07008KT P6SM SCT025 BKN050
     FM042100 11008KT P6SM FEW030 SCT050
     FM050200 16009KT P6SM SKC=



000
FTUS45 KBOU 040913 AAA
TAFAPA
TAF AMD
KAPA 040913Z 0409/0506 04010KT 2SM -SN BR SCT008 OVC015
      TEMPO 0409/0412 3/4SM -SN BR BKN008
     FM041500 04005KT P6SM VCSH SCT015 BKN025
     FM041800 07008KT P6SM FEW025 BKN050
     FM042100 11008KT P6SM FEW030 SCT050
     FM050200 16009KT P6SM SKC=



000
FTUS45 KBOU 040913 AAB
TAFBJC
TAF AMD
KBJC 040913Z 0409/0506 02008KT 6SM -SN BR SCT008 OVC014
      TEMPO 0409/0412 2SM -SN BR BKN008
     FM041300 06008KT P6SM VCSH SCT016 BKN025 OVC040
     FM041800 07008KT P6SM SCT025 BKN050
     FM042100 11008KT P6SM FEW030 SCT050
     FM050200 16009KT P6SM SKC=



000
FTUS45 KBOU 040913 AAA
TAFAPA
TAF AMD
KAPA 040913Z 0409/0506 04010KT 2SM -SN BR SCT008 OVC015
      TEMPO 0409/0412 3/4SM -SN BR BKN008
     FM041500 04005KT P6SM VCSH SCT015 BKN025
     FM041800 07008KT P6SM FEW025 BKN050
     FM042100 11008KT P6SM FEW030 SCT050
     FM050200 16009KT P6SM SKC=



000
FTUS45 KBOU 040913 AAB
TAFBJC
TAF AMD
KBJC 040913Z 0409/0506 02008KT 6SM -SN BR SCT008 OVC014
      TEMPO 0409/0412 2SM -SN BR BKN008
     FM041300 06008KT P6SM VCSH SCT016 BKN025 OVC040
     FM041800 07008KT P6SM SCT025 BKN050
     FM042100 11008KT P6SM FEW030 SCT050
     FM050200 16009KT P6SM SKC=



000
FTUS45 KBOU 040913 AAA
TAFAPA
TAF AMD
KAPA 040913Z 0409/0506 04010KT 2SM -SN BR SCT008 OVC015
      TEMPO 0409/0412 3/4SM -SN BR BKN008
     FM041500 04005KT P6SM VCSH SCT015 BKN025
     FM041800 07008KT P6SM FEW025 BKN050
     FM042100 11008KT P6SM FEW030 SCT050
     FM050200 16009KT P6SM SKC=



000
FTUS45 KBOU 040913 AAB
TAFBJC
TAF AMD
KBJC 040913Z 0409/0506 02008KT 6SM -SN BR SCT008 OVC014
      TEMPO 0409/0412 2SM -SN BR BKN008
     FM041300 06008KT P6SM VCSH SCT016 BKN025 OVC040
     FM041800 07008KT P6SM SCT025 BKN050
     FM042100 11008KT P6SM FEW030 SCT050
     FM050200 16009KT P6SM SKC=



000
FTUS45 KBOU 040913 AAB
TAFBJC
TAF AMD
KBJC 040913Z 0409/0506 02008KT 6SM -SN BR SCT008 OVC014
      TEMPO 0409/0412 2SM -SN BR BKN008
     FM041300 06008KT P6SM VCSH SCT016 BKN025 OVC040
     FM041800 07008KT P6SM SCT025 BKN050
     FM042100 11008KT P6SM FEW030 SCT050
     FM050200 16009KT P6SM SKC=



000
FTUS45 KBOU 040913 AAA
TAFAPA
TAF AMD
KAPA 040913Z 0409/0506 04010KT 2SM -SN BR SCT008 OVC015
      TEMPO 0409/0412 3/4SM -SN BR BKN008
     FM041500 04005KT P6SM VCSH SCT015 BKN025
     FM041800 07008KT P6SM FEW025 BKN050
     FM042100 11008KT P6SM FEW030 SCT050
     FM050200 16009KT P6SM SKC=



000
FTUS45 KBOU 040908 AAB
TAFDEN
TAF AMD
KDEN 040908Z 0409/0512 03010KT 3SM -SN BR SCT010 OVC024
      TEMPO 0409/0411 2SM -SN BR BKN010
     FM041300 06008KT P6SM VCSH SCT018 SCT025 BKN040
     FM041800 07008KT P6SM FEW025 BKN060
     FM042100 11008KT P6SM FEW030 SCT060
     FM050200 16009KT P6SM SKC
     FM050500 21011KT P6SM SKC=



000
FTUS45 KBOU 040908 AAB
TAFDEN
TAF AMD
KDEN 040908Z 0409/0512 03010KT 3SM -SN BR SCT010 OVC024
      TEMPO 0409/0411 2SM -SN BR BKN010
     FM041300 06008KT P6SM VCSH SCT018 SCT025 BKN040
     FM041800 07008KT P6SM FEW025 BKN060
     FM042100 11008KT P6SM FEW030 SCT060
     FM050200 16009KT P6SM SKC
     FM050500 21011KT P6SM SKC=



000
FTUS45 KBOU 040728 AAA
TAFDEN
TAF AMD
KDEN 040728Z 0407/0512 03010KT 3SM -SN BR SCT010 OVC024
      TEMPO 0407/0409 2SM -SN BR BKN010
     FM041300 06008KT P6SM VCSH SCT018 SCT025 BKN040
     FM041800 07008KT P6SM FEW025 BKN060
     FM042100 11008KT P6SM FEW030 SCT060
     FM050200 16009KT P6SM SKC
     FM050500 21011KT P6SM SKC=



000
FTUS45 KBOU 040728 AAA
TAFDEN
TAF AMD
KDEN 040728Z 0407/0512 03010KT 3SM -SN BR SCT010 OVC024
      TEMPO 0407/0409 2SM -SN BR BKN010
     FM041300 06008KT P6SM VCSH SCT018 SCT025 BKN040
     FM041800 07008KT P6SM FEW025 BKN060
     FM042100 11008KT P6SM FEW030 SCT060
     FM050200 16009KT P6SM SKC
     FM050500 21011KT P6SM SKC=



000
FTUS45 KBOU 040728 AAA
TAFBJC
TAF AMD
KBJC 040728Z 0407/0506 02008KT 6SM -SN BR SCT008 OVC014
      TEMPO 0407/0409 2SM -SN BR BKN008
     FM041300 06008KT P6SM VCSH SCT016 BKN025 OVC040
     FM041800 07008KT P6SM SCT025 BKN050
     FM042100 11008KT P6SM FEW030 SCT050
     FM050200 16009KT P6SM SKC=



000
FTUS45 KBOU 040728 AAA
TAFBJC
TAF AMD
KBJC 040728Z 0407/0506 02008KT 6SM -SN BR SCT008 OVC014
      TEMPO 0407/0409 2SM -SN BR BKN008
     FM041300 06008KT P6SM VCSH SCT016 BKN025 OVC040
     FM041800 07008KT P6SM SCT025 BKN050
     FM042100 11008KT P6SM FEW030 SCT050
     FM050200 16009KT P6SM SKC=



000
FTUS45 KBOU 040728 AAA
TAFDEN
TAF AMD
KDEN 040728Z 0407/0512 03010KT 3SM -SN BR SCT010 OVC024
      TEMPO 0407/0409 2SM -SN BR BKN010
     FM041300 06008KT P6SM VCSH SCT018 SCT025 BKN040
     FM041800 07008KT P6SM FEW025 BKN060
     FM042100 11008KT P6SM FEW030 SCT060
     FM050200 16009KT P6SM SKC
     FM050500 21011KT P6SM SKC=



000
FTUS45 KBOU 040728 AAA
TAFBJC
TAF AMD
KBJC 040728Z 0407/0506 02008KT 6SM -SN BR SCT008 OVC014
      TEMPO 0407/0409 2SM -SN BR BKN008
     FM041300 06008KT P6SM VCSH SCT016 BKN025 OVC040
     FM041800 07008KT P6SM SCT025 BKN050
     FM042100 11008KT P6SM FEW030 SCT050
     FM050200 16009KT P6SM SKC=



000
FTUS45 KBOU 040728 AAA
TAFBJC
TAF AMD
KBJC 040728Z 0407/0506 02008KT 6SM -SN BR SCT008 OVC014
      TEMPO 0407/0409 2SM -SN BR BKN008
     FM041300 06008KT P6SM VCSH SCT016 BKN025 OVC040
     FM041800 07008KT P6SM SCT025 BKN050
     FM042100 11008KT P6SM FEW030 SCT050
     FM050200 16009KT P6SM SKC=



000
FTUS45 KBOU 040728 AAA
TAFDEN
TAF AMD
KDEN 040728Z 0407/0512 03010KT 3SM -SN BR SCT010 OVC024
      TEMPO 0407/0409 2SM -SN BR BKN010
     FM041300 06008KT P6SM VCSH SCT018 SCT025 BKN040
     FM041800 07008KT P6SM FEW025 BKN060
     FM042100 11008KT P6SM FEW030 SCT060
     FM050200 16009KT P6SM SKC
     FM050500 21011KT P6SM SKC=



000
FTUS45 KBOU 040528
TAFAPA
TAF
KAPA 040528Z 0406/0506 04010KT 2SM -SN BR SCT005 OVC010
      TEMPO 0406/0408 1/2SM SN VV005
     FM041000 02008KT 2SM -SN BR SCT008 OVC015
     FM041500 VRB05KT P6SM VCSH SCT015 BKN025
     FM041800 07008KT P6SM FEW025 BKN050
     FM042100 11008KT P6SM FEW030 SCT050
     FM050200 16009KT P6SM SKC=



000
FTUS45 KBOU 040528
TAFBJC
TAF
KBJC 040528Z 0406/0506 36008KT 1 1/2SM -SN BR SCT008 OVC014
      TEMPO 0406/0407 4SM -SN BR
     FM041000 04010KT 3SM -SN BR SCT008 OVC016
     FM041300 06008KT P6SM VCSH SCT016 BKN025 OVC040
     FM041800 07008KT P6SM SCT025 BKN050
     FM042100 11008KT P6SM FEW030 SCT050
     FM050200 16009KT P6SM SKC=



000
FTUS45 KBOU 040528
TAFDEN
TAF
KDEN 040528Z 0406/0512 02011KT 1 1/2SM -SN BR SCT008 OVC014
      TEMPO 0406/0407 5SM -SN BR OVC028
     FM040900 04010KT 3SM -SN BR SCT008 OVC020
     FM041300 06008KT P6SM VCSH SCT018 SCT025 BKN040
     FM041800 07008KT P6SM FEW025 BKN060
     FM042100 11008KT P6SM FEW030 SCT060
     FM050200 16009KT P6SM SKC
     FM050500 21011KT P6SM SKC=



000
FTUS45 KBOU 040528
TAFBJC
TAF
KBJC 040528Z 0406/0506 36008KT 1 1/2SM -SN BR SCT008 OVC014
      TEMPO 0406/0407 4SM -SN BR
     FM041000 04010KT 3SM -SN BR SCT008 OVC016
     FM041300 06008KT P6SM VCSH SCT016 BKN025 OVC040
     FM041800 07008KT P6SM SCT025 BKN050
     FM042100 11008KT P6SM FEW030 SCT050
     FM050200 16009KT P6SM SKC=



000
FTUS45 KBOU 040528
TAFAPA
TAF
KAPA 040528Z 0406/0506 04010KT 2SM -SN BR SCT005 OVC010
      TEMPO 0406/0408 1/2SM SN VV005
     FM041000 02008KT 2SM -SN BR SCT008 OVC015
     FM041500 VRB05KT P6SM VCSH SCT015 BKN025
     FM041800 07008KT P6SM FEW025 BKN050
     FM042100 11008KT P6SM FEW030 SCT050
     FM050200 16009KT P6SM SKC=



000
FTUS45 KBOU 040528
TAFDEN
TAF
KDEN 040528Z 0406/0512 02011KT 1 1/2SM -SN BR SCT008 OVC014
      TEMPO 0406/0407 5SM -SN BR OVC028
     FM040900 04010KT 3SM -SN BR SCT008 OVC020
     FM041300 06008KT P6SM VCSH SCT018 SCT025 BKN040
     FM041800 07008KT P6SM FEW025 BKN060
     FM042100 11008KT P6SM FEW030 SCT060
     FM050200 16009KT P6SM SKC
     FM050500 21011KT P6SM SKC=



000
FTUS45 KBOU 040528
TAFBJC
TAF
KBJC 040528Z 0406/0506 36008KT 1 1/2SM -SN BR SCT008 OVC014
      TEMPO 0406/0407 4SM -SN BR
     FM041000 04010KT 3SM -SN BR SCT008 OVC016
     FM041300 06008KT P6SM VCSH SCT016 BKN025 OVC040
     FM041800 07008KT P6SM SCT025 BKN050
     FM042100 11008KT P6SM FEW030 SCT050
     FM050200 16009KT P6SM SKC=



000
FTUS45 KBOU 040528
TAFBJC
TAF
KBJC 040528Z 0406/0506 36008KT 1 1/2SM -SN BR SCT008 OVC014
      TEMPO 0406/0407 4SM -SN BR
     FM041000 04010KT 3SM -SN BR SCT008 OVC016
     FM041300 06008KT P6SM VCSH SCT016 BKN025 OVC040
     FM041800 07008KT P6SM SCT025 BKN050
     FM042100 11008KT P6SM FEW030 SCT050
     FM050200 16009KT P6SM SKC=



000
FTUS45 KBOU 040528
TAFAPA
TAF
KAPA 040528Z 0406/0506 04010KT 2SM -SN BR SCT005 OVC010
      TEMPO 0406/0408 1/2SM SN VV005
     FM041000 02008KT 2SM -SN BR SCT008 OVC015
     FM041500 VRB05KT P6SM VCSH SCT015 BKN025
     FM041800 07008KT P6SM FEW025 BKN050
     FM042100 11008KT P6SM FEW030 SCT050
     FM050200 16009KT P6SM SKC=



000
FTUS45 KBOU 040528
TAFDEN
TAF
KDEN 040528Z 0406/0512 02011KT 1 1/2SM -SN BR SCT008 OVC014
      TEMPO 0406/0407 5SM -SN BR OVC028
     FM040900 04010KT 3SM -SN BR SCT008 OVC020
     FM041300 06008KT P6SM VCSH SCT018 SCT025 BKN040
     FM041800 07008KT P6SM FEW025 BKN060
     FM042100 11008KT P6SM FEW030 SCT060
     FM050200 16009KT P6SM SKC
     FM050500 21011KT P6SM SKC=



000
FTUS45 KBOU 040528
TAFAPA
TAF
KAPA 040528Z 0406/0506 04010KT 2SM -SN BR SCT005 OVC010
      TEMPO 0406/0408 1/2SM SN VV005
     FM041000 02008KT 2SM -SN BR SCT008 OVC015
     FM041500 VRB05KT P6SM VCSH SCT015 BKN025
     FM041800 07008KT P6SM FEW025 BKN050
     FM042100 11008KT P6SM FEW030 SCT050
     FM050200 16009KT P6SM SKC=



000
FTUS45 KBOU 040528
TAFDEN
TAF
KDEN 040528Z 0406/0512 02011KT 1 1/2SM -SN BR SCT008 OVC014
      TEMPO 0406/0407 5SM -SN BR OVC028
     FM040900 04010KT 3SM -SN BR SCT008 OVC020
     FM041300 06008KT P6SM VCSH SCT018 SCT025 BKN040
     FM041800 07008KT P6SM FEW025 BKN060
     FM042100 11008KT P6SM FEW030 SCT060
     FM050200 16009KT P6SM SKC
     FM050500 21011KT P6SM SKC=



000
FTUS45 KBOU 040343 AAA
TAFAPA
TAF AMD
KAPA 040343Z 0404/0424 04010KT 1 1/2SM -SN BR SCT005 OVC010
      TEMPO 0404/0407 1/2SM SN VV005
     FM040900 02008KT 2SM -SN BR SCT008 OVC015
     FM041600 VRB05KT P6SM SCT015 BKN025
     FM041900 12006KT P6SM SCT025 BKN040
     FM042300 14007KT P6SM SCT030 BKN060=



000
FTUS45 KBOU 040343 AAA
TAFAPA
TAF AMD
KAPA 040343Z 0404/0424 04010KT 1 1/2SM -SN BR SCT005 OVC010
      TEMPO 0404/0407 1/2SM SN VV005
     FM040900 02008KT 2SM -SN BR SCT008 OVC015
     FM041600 VRB05KT P6SM SCT015 BKN025
     FM041900 12006KT P6SM SCT025 BKN040
     FM042300 14007KT P6SM SCT030 BKN060=



000
FTUS45 KBOU 040222 AAB
TAFDEN
TAF AMD
KDEN 040222Z 0402/0506 02011KT 1SM -SN BR SCT008 OVC014
      TEMPO 0403/0406 1/2SM SN VV005
     FM040700 04010KT 2SM -SN BR SCT006 OVC012
     FM041400 06008KT P6SM VCSH BKN015 OVC025
     FM041800 07008KT P6SM SCT025 BKN040
     FM042300 11008KT P6SM SCT030 BKN060
     FM050200 16010KT P6SM SCT050 SCT120=



000
FTUS45 KBOU 040222 AAB
TAFDEN
TAF AMD
KDEN 040222Z 0402/0506 02011KT 1SM -SN BR SCT008 OVC014
      TEMPO 0403/0406 1/2SM SN VV005
     FM040700 04010KT 2SM -SN BR SCT006 OVC012
     FM041400 06008KT P6SM VCSH BKN015 OVC025
     FM041800 07008KT P6SM SCT025 BKN040
     FM042300 11008KT P6SM SCT030 BKN060
     FM050200 16010KT P6SM SCT050 SCT120=



000
FTUS45 KBOU 040222 AAB
TAFDEN
TAF AMD
KDEN 040222Z 0402/0506 02011KT 1SM -SN BR SCT008 OVC014
      TEMPO 0403/0406 1/2SM SN VV005
     FM040700 04010KT 2SM -SN BR SCT006 OVC012
     FM041400 06008KT P6SM VCSH BKN015 OVC025
     FM041800 07008KT P6SM SCT025 BKN040
     FM042300 11008KT P6SM SCT030 BKN060
     FM050200 16010KT P6SM SCT050 SCT120=



000
FTUS45 KBOU 040222 AAB
TAFDEN
TAF AMD
KDEN 040222Z 0402/0506 02011KT 1SM -SN BR SCT008 OVC014
      TEMPO 0403/0406 1/2SM SN VV005
     FM040700 04010KT 2SM -SN BR SCT006 OVC012
     FM041400 06008KT P6SM VCSH BKN015 OVC025
     FM041800 07008KT P6SM SCT025 BKN040
     FM042300 11008KT P6SM SCT030 BKN060
     FM050200 16010KT P6SM SCT050 SCT120=



000
FTUS45 KBOU 040115 AAA
TAFDEN
TAF AMD
KDEN 040115Z 0401/0506 09007KT P6SM VCSH BKN015 OVC022
      TEMPO 0401/0403 2SM -SN BR
     FM040300 02011KT 2SM -SN BR BKN009 OVC014
      TEMPO 0403/0406 3/4SM -SN VV005
     FM040700 04010KT 2SM -SN BR SCT006 OVC012
     FM041500 08006KT P6SM BKN015 OVC025
     FM041900 13006KT P6SM SCT025 BKN040
     FM042300 11008KT P6SM SCT030 BKN060
     FM050200 16010KT P6SM SCT050 SCT120=



000
FTUS45 KBOU 040115 AAA
TAFDEN
TAF AMD
KDEN 040115Z 0401/0506 09007KT P6SM VCSH BKN015 OVC022
      TEMPO 0401/0403 2SM -SN BR
     FM040300 02011KT 2SM -SN BR BKN009 OVC014
      TEMPO 0403/0406 3/4SM -SN VV005
     FM040700 04010KT 2SM -SN BR SCT006 OVC012
     FM041500 08006KT P6SM BKN015 OVC025
     FM041900 13006KT P6SM SCT025 BKN040
     FM042300 11008KT P6SM SCT030 BKN060
     FM050200 16010KT P6SM SCT050 SCT120=



000
FTUS45 KBOU 040115 AAA
TAFDEN
TAF AMD
KDEN 040115Z 0401/0506 09007KT P6SM VCSH BKN015 OVC022
      TEMPO 0401/0403 2SM -SN BR
     FM040300 02011KT 2SM -SN BR BKN009 OVC014
      TEMPO 0403/0406 3/4SM -SN VV005
     FM040700 04010KT 2SM -SN BR SCT006 OVC012
     FM041500 08006KT P6SM BKN015 OVC025
     FM041900 13006KT P6SM SCT025 BKN040
     FM042300 11008KT P6SM SCT030 BKN060
     FM050200 16010KT P6SM SCT050 SCT120=



000
FTUS45 KBOU 040115 AAA
TAFDEN
TAF AMD
KDEN 040115Z 0401/0506 09007KT P6SM VCSH BKN015 OVC022
      TEMPO 0401/0403 2SM -SN BR
     FM040300 02011KT 2SM -SN BR BKN009 OVC014
      TEMPO 0403/0406 3/4SM -SN VV005
     FM040700 04010KT 2SM -SN BR SCT006 OVC012
     FM041500 08006KT P6SM BKN015 OVC025
     FM041900 13006KT P6SM SCT025 BKN040
     FM042300 11008KT P6SM SCT030 BKN060
     FM050200 16010KT P6SM SCT050 SCT120=



000
FTUS45 KBOU 032338
TAFDEN
TAF
KDEN 032338Z 0400/0506 09007KT 4SM -SN BR BKN015 OVC022
      TEMPO 0400/0402 2SM -SN BR BKN007 OVC014
     FM040200 02010G22KT 2SM -SN BR BKN008 OVC014
      TEMPO 0402/0405 3/4SM -SN BLSN VV007
     FM040700 04010KT 2SM -SN BR SCT006 OVC012
     FM041500 08006KT P6SM BKN015 OVC025
     FM041900 13006KT P6SM SCT025 BKN040
     FM042300 11008KT P6SM SCT030 BKN060
     FM050200 16010KT P6SM SCT050 SCT120=



000
FTUS45 KBOU 032338
TAFDEN
TAF
KDEN 032338Z 0400/0506 09007KT 4SM -SN BR BKN015 OVC022
      TEMPO 0400/0402 2SM -SN BR BKN007 OVC014
     FM040200 02010G22KT 2SM -SN BR BKN008 OVC014
      TEMPO 0402/0405 3/4SM -SN BLSN VV007
     FM040700 04010KT 2SM -SN BR SCT006 OVC012
     FM041500 08006KT P6SM BKN015 OVC025
     FM041900 13006KT P6SM SCT025 BKN040
     FM042300 11008KT P6SM SCT030 BKN060
     FM050200 16010KT P6SM SCT050 SCT120=



000
FTUS45 KBOU 032338
TAFDEN
TAF
KDEN 032338Z 0400/0506 09007KT 4SM -SN BR BKN015 OVC022
      TEMPO 0400/0402 2SM -SN BR BKN007 OVC014
     FM040200 02010G22KT 2SM -SN BR BKN008 OVC014
      TEMPO 0402/0405 3/4SM -SN BLSN VV007
     FM040700 04010KT 2SM -SN BR SCT006 OVC012
     FM041500 08006KT P6SM BKN015 OVC025
     FM041900 13006KT P6SM SCT025 BKN040
     FM042300 11008KT P6SM SCT030 BKN060
     FM050200 16010KT P6SM SCT050 SCT120=



000
FTUS45 KBOU 032338
TAFAPA
TAF
KAPA 032338Z 0400/0424 07007KT P6SM OVC012
      TEMPO 0401/0403 4SM -SN BR SCT006 OVC010
     FM040300 02012G20KT 2SM -SN BR BKN005 OVC008
      TEMPO 0403/0406 3/4SM -SN BLSN VV003
     FM040800 02008KT 2SM -SN BR SCT008 OVC015
     FM041600 VRB05KT P6SM SCT015 BKN025
     FM041900 12006KT P6SM SCT025 BKN040
     FM042300 14007KT P6SM SCT030 BKN060=



000
FTUS45 KBOU 032338
TAFBJC
TAF
KBJC 032338Z 0400/0424 11007KT 6SM -SN BR OVC015
      TEMPO 0401/0403 3SM -SN BR BKN007
     FM040300 36015G22KT 2SM -SN BR BKN005 OVC008
      TEMPO 0403/0406 1/2SM SN BLSN VV005
     FM040700 04009KT 2SM -SN BR SCT006 OVC012
     FM041600 08006KT P6SM BKN010 OVC020
     FM041900 11007KT P6SM SCT025 BKN040
     FM042300 13007KT P6SM SCT035 BKN060=



000
FTUS45 KBOU 032338
TAFAPA
TAF
KAPA 032338Z 0400/0424 07007KT P6SM OVC012
      TEMPO 0401/0403 4SM -SN BR SCT006 OVC010
     FM040300 02012G20KT 2SM -SN BR BKN005 OVC008
      TEMPO 0403/0406 3/4SM -SN BLSN VV003
     FM040800 02008KT 2SM -SN BR SCT008 OVC015
     FM041600 VRB05KT P6SM SCT015 BKN025
     FM041900 12006KT P6SM SCT025 BKN040
     FM042300 14007KT P6SM SCT030 BKN060=



000
FTUS45 KBOU 032338
TAFBJC
TAF
KBJC 032338Z 0400/0424 11007KT 6SM -SN BR OVC015
      TEMPO 0401/0403 3SM -SN BR BKN007
     FM040300 36015G22KT 2SM -SN BR BKN005 OVC008
      TEMPO 0403/0406 1/2SM SN BLSN VV005
     FM040700 04009KT 2SM -SN BR SCT006 OVC012
     FM041600 08006KT P6SM BKN010 OVC020
     FM041900 11007KT P6SM SCT025 BKN040
     FM042300 13007KT P6SM SCT035 BKN060=



000
FTUS45 KBOU 032338
TAFAPA
TAF
KAPA 032338Z 0400/0424 07007KT P6SM OVC012
      TEMPO 0401/0403 4SM -SN BR SCT006 OVC010
     FM040300 02012G20KT 2SM -SN BR BKN005 OVC008
      TEMPO 0403/0406 3/4SM -SN BLSN VV003
     FM040800 02008KT 2SM -SN BR SCT008 OVC015
     FM041600 VRB05KT P6SM SCT015 BKN025
     FM041900 12006KT P6SM SCT025 BKN040
     FM042300 14007KT P6SM SCT030 BKN060=



000
FTUS45 KBOU 032338
TAFBJC
TAF
KBJC 032338Z 0400/0424 11007KT 6SM -SN BR OVC015
      TEMPO 0401/0403 3SM -SN BR BKN007
     FM040300 36015G22KT 2SM -SN BR BKN005 OVC008
      TEMPO 0403/0406 1/2SM SN BLSN VV005
     FM040700 04009KT 2SM -SN BR SCT006 OVC012
     FM041600 08006KT P6SM BKN010 OVC020
     FM041900 11007KT P6SM SCT025 BKN040
     FM042300 13007KT P6SM SCT035 BKN060=



000
FTUS45 KBOU 032338
TAFDEN
TAF
KDEN 032338Z 0400/0506 09007KT 4SM -SN BR BKN015 OVC022
      TEMPO 0400/0402 2SM -SN BR BKN007 OVC014
     FM040200 02010G22KT 2SM -SN BR BKN008 OVC014
      TEMPO 0402/0405 3/4SM -SN BLSN VV007
     FM040700 04010KT 2SM -SN BR SCT006 OVC012
     FM041500 08006KT P6SM BKN015 OVC025
     FM041900 13006KT P6SM SCT025 BKN040
     FM042300 11008KT P6SM SCT030 BKN060
     FM050200 16010KT P6SM SCT050 SCT120=



000
FTUS45 KBOU 032338
TAFAPA
TAF
KAPA 032338Z 0400/0424 07007KT P6SM OVC012
      TEMPO 0401/0403 4SM -SN BR SCT006 OVC010
     FM040300 02012G20KT 2SM -SN BR BKN005 OVC008
      TEMPO 0403/0406 3/4SM -SN BLSN VV003
     FM040800 02008KT 2SM -SN BR SCT008 OVC015
     FM041600 VRB05KT P6SM SCT015 BKN025
     FM041900 12006KT P6SM SCT025 BKN040
     FM042300 14007KT P6SM SCT030 BKN060=



000
FTUS45 KBOU 032338
TAFBJC
TAF
KBJC 032338Z 0400/0424 11007KT 6SM -SN BR OVC015
      TEMPO 0401/0403 3SM -SN BR BKN007
     FM040300 36015G22KT 2SM -SN BR BKN005 OVC008
      TEMPO 0403/0406 1/2SM SN BLSN VV005
     FM040700 04009KT 2SM -SN BR SCT006 OVC012
     FM041600 08006KT P6SM BKN010 OVC020
     FM041900 11007KT P6SM SCT025 BKN040
     FM042300 13007KT P6SM SCT035 BKN060=



000
FTUS45 KBOU 032255 AAA
TAFBJC
TAF AMD
KBJC 032255Z 0323/0418 09008KT 3SM -SN BR SCT008 OVC015
      TEMPO 0323/0403 1SM -SN BR BKN007
     FM040300 36015G22KT 2SM -SN BR BKN005 OVC008
      TEMPO 0403/0406 1/2SM SN BLSN VV005
     FM040700 04009KT 2SM -SN BR SCT006 OVC012
     FM041600 08006KT P6SM BKN010 OVC020=



000
FTUS45 KBOU 032255 AAB
TAFAPA
TAF AMD
KAPA 032255Z 0323/0418 07007KT P6SM OVC012
      TEMPO 0400/0403 4SM -SN BR SCT006 OVC010
     FM040300 02012G20KT 2SM -SN BR BKN005 OVC008
      TEMPO 0403/0407 3/4SM -SN BLSN VV003
     FM040900 02008KT 2SM -SN BR SCT008 OVC015
     FM041600 VRB05KT P6SM SCT015 BKN025=



000
FTUS45 KBOU 032255 AAC
TAFDEN
TAF AMD
KDEN 032255Z 0323/0424 09007KT P6SM OVC015
      TEMPO 0400/0403 4SM -SN BR SCT007 OVC012
     FM040300 02010G22KT 2SM -SN BR BKN008 OVC014
      TEMPO 0403/0406 3/4SM -SN BLSN VV007
     FM040700 04010KT 2SM -SN BR SCT006 OVC012
     FM041500 08006KT P6SM BKN015 OVC025
     FM041900 13006KT P6SM SCT025 BKN040=



000
FTUS45 KBOU 032255 AAB
TAFAPA
TAF AMD
KAPA 032255Z 0323/0418 07007KT P6SM OVC012
      TEMPO 0400/0403 4SM -SN BR SCT006 OVC010
     FM040300 02012G20KT 2SM -SN BR BKN005 OVC008
      TEMPO 0403/0407 3/4SM -SN BLSN VV003
     FM040900 02008KT 2SM -SN BR SCT008 OVC015
     FM041600 VRB05KT P6SM SCT015 BKN025=



000
FTUS45 KBOU 032255 AAC
TAFDEN
TAF AMD
KDEN 032255Z 0323/0424 09007KT P6SM OVC015
      TEMPO 0400/0403 4SM -SN BR SCT007 OVC012
     FM040300 02010G22KT 2SM -SN BR BKN008 OVC014
      TEMPO 0403/0406 3/4SM -SN BLSN VV007
     FM040700 04010KT 2SM -SN BR SCT006 OVC012
     FM041500 08006KT P6SM BKN015 OVC025
     FM041900 13006KT P6SM SCT025 BKN040=



000
FTUS45 KBOU 032255 AAC
TAFDEN
TAF AMD
KDEN 032255Z 0323/0424 09007KT P6SM OVC015
      TEMPO 0400/0403 4SM -SN BR SCT007 OVC012
     FM040300 02010G22KT 2SM -SN BR BKN008 OVC014
      TEMPO 0403/0406 3/4SM -SN BLSN VV007
     FM040700 04010KT 2SM -SN BR SCT006 OVC012
     FM041500 08006KT P6SM BKN015 OVC025
     FM041900 13006KT P6SM SCT025 BKN040=



000
FTUS45 KBOU 032255 AAA
TAFBJC
TAF AMD
KBJC 032255Z 0323/0418 09008KT 3SM -SN BR SCT008 OVC015
      TEMPO 0323/0403 1SM -SN BR BKN007
     FM040300 36015G22KT 2SM -SN BR BKN005 OVC008
      TEMPO 0403/0406 1/2SM SN BLSN VV005
     FM040700 04009KT 2SM -SN BR SCT006 OVC012
     FM041600 08006KT P6SM BKN010 OVC020=



000
FTUS45 KBOU 032255 AAB
TAFAPA
TAF AMD
KAPA 032255Z 0323/0418 07007KT P6SM OVC012
      TEMPO 0400/0403 4SM -SN BR SCT006 OVC010
     FM040300 02012G20KT 2SM -SN BR BKN005 OVC008
      TEMPO 0403/0407 3/4SM -SN BLSN VV003
     FM040900 02008KT 2SM -SN BR SCT008 OVC015
     FM041600 VRB05KT P6SM SCT015 BKN025=



000
FTUS45 KBOU 032255 AAA
TAFBJC
TAF AMD
KBJC 032255Z 0323/0418 09008KT 3SM -SN BR SCT008 OVC015
      TEMPO 0323/0403 1SM -SN BR BKN007
     FM040300 36015G22KT 2SM -SN BR BKN005 OVC008
      TEMPO 0403/0406 1/2SM SN BLSN VV005
     FM040700 04009KT 2SM -SN BR SCT006 OVC012
     FM041600 08006KT P6SM BKN010 OVC020=



000
FTUS45 KBOU 032102 AAB
TAFDEN
TAF AMD
KDEN 032102Z 0321/0424 06012KT 5SM -SN BR SCT015 OVC022
      TEMPO 0321/0323 2SM -SN BR SCT008 BKN015
     FM032300 09010KT 2SM -SN BR BKN010 OVC015
      TEMPO 0323/0403 1SM -SN BR
     FM040300 02015G22KT 3/4SM -SN BR BKN005 OVC008
      TEMPO 0403/0406 1/4SM +SN BLSN VV005
     FM040700 04010KT 2SM -SN BR SCT006 OVC012
     FM041500 08006KT P6SM BKN015 OVC025
     FM041900 13006KT P6SM SCT025 BKN040=



000
FTUS45 KBOU 032102 AAB
TAFDEN
TAF AMD
KDEN 032102Z 0321/0424 06012KT 5SM -SN BR SCT015 OVC022
      TEMPO 0321/0323 2SM -SN BR SCT008 BKN015
     FM032300 09010KT 2SM -SN BR BKN010 OVC015
      TEMPO 0323/0403 1SM -SN BR
     FM040300 02015G22KT 3/4SM -SN BR BKN005 OVC008
      TEMPO 0403/0406 1/4SM +SN BLSN VV005
     FM040700 04010KT 2SM -SN BR SCT006 OVC012
     FM041500 08006KT P6SM BKN015 OVC025
     FM041900 13006KT P6SM SCT025 BKN040=



000
FTUS45 KBOU 031901 AAA
TAFAPA
TAF AMD
KAPA 031901Z 0319/0418 05008KT P6SM -SN OVC010
      TEMPO 0320/0323 2SM -SN OVC008
     FM032300 07010KT 2SM -SN BR BKN008 OVC014
      TEMPO 0400/0404 1SM -SN BR VV008
     FM040400 02013G20KT 3/4SM -SN BR BKN005 OVC008
      TEMPO 0404/0407 1/4SM +SN BLSN VV003
     FM040900 02008KT 2SM -SN BR SCT008 OVC015
     FM041600 VRB05KT P6SM SCT015 BKN025=



000
FTUS45 KBOU 031901 AAA
TAFAPA
TAF AMD
KAPA 031901Z 0319/0418 05008KT P6SM -SN OVC010
      TEMPO 0320/0323 2SM -SN OVC008
     FM032300 07010KT 2SM -SN BR BKN008 OVC014
      TEMPO 0400/0404 1SM -SN BR VV008
     FM040400 02013G20KT 3/4SM -SN BR BKN005 OVC008
      TEMPO 0404/0407 1/4SM +SN BLSN VV003
     FM040900 02008KT 2SM -SN BR SCT008 OVC015
     FM041600 VRB05KT P6SM SCT015 BKN025=



000
FTUS45 KBOU 031901 AAA
TAFAPA
TAF AMD
KAPA 031901Z 0319/0418 05008KT P6SM -SN OVC010
      TEMPO 0320/0323 2SM -SN OVC008
     FM032300 07010KT 2SM -SN BR BKN008 OVC014
      TEMPO 0400/0404 1SM -SN BR VV008
     FM040400 02013G20KT 3/4SM -SN BR BKN005 OVC008
      TEMPO 0404/0407 1/4SM +SN BLSN VV003
     FM040900 02008KT 2SM -SN BR SCT008 OVC015
     FM041600 VRB05KT P6SM SCT015 BKN025=



000
FTUS45 KBOU 031859 AAA
TAFDEN
TAF AMD
KDEN 031859Z 0319/0424 04013KT 6SM -SN OVC020
     FM032100 06011KT 3SM -SN BR SCT015 OVC020
     FM032300 09010KT 2SM -SN BR BKN010 OVC015
      TEMPO 0323/0403 1SM -SN BR
     FM040300 02015G22KT 3/4SM -SN BR BKN005 OVC008
      TEMPO 0403/0406 1/4SM +SN BLSN VV005
     FM040700 04010KT 2SM -SN BR SCT006 OVC012
     FM041500 08006KT P6SM BKN015 OVC025
     FM041900 13006KT P6SM SCT025 BKN040=



000
FTUS45 KBOU 031859 AAA
TAFDEN
TAF AMD
KDEN 031859Z 0319/0424 04013KT 6SM -SN OVC020
     FM032100 06011KT 3SM -SN BR SCT015 OVC020
     FM032300 09010KT 2SM -SN BR BKN010 OVC015
      TEMPO 0323/0403 1SM -SN BR
     FM040300 02015G22KT 3/4SM -SN BR BKN005 OVC008
      TEMPO 0403/0406 1/4SM +SN BLSN VV005
     FM040700 04010KT 2SM -SN BR SCT006 OVC012
     FM041500 08006KT P6SM BKN015 OVC025
     FM041900 13006KT P6SM SCT025 BKN040=



000
FTUS45 KBOU 031859 AAA
TAFDEN
TAF AMD
KDEN 031859Z 0319/0424 04013KT 6SM -SN OVC020
     FM032100 06011KT 3SM -SN BR SCT015 OVC020
     FM032300 09010KT 2SM -SN BR BKN010 OVC015
      TEMPO 0323/0403 1SM -SN BR
     FM040300 02015G22KT 3/4SM -SN BR BKN005 OVC008
      TEMPO 0403/0406 1/4SM +SN BLSN VV005
     FM040700 04010KT 2SM -SN BR SCT006 OVC012
     FM041500 08006KT P6SM BKN015 OVC025
     FM041900 13006KT P6SM SCT025 BKN040=



000
FTUS45 KBOU 031859 AAA
TAFDEN
TAF AMD
KDEN 031859Z 0319/0424 04013KT 6SM -SN OVC020
     FM032100 06011KT 3SM -SN BR SCT015 OVC020
     FM032300 09010KT 2SM -SN BR BKN010 OVC015
      TEMPO 0323/0403 1SM -SN BR
     FM040300 02015G22KT 3/4SM -SN BR BKN005 OVC008
      TEMPO 0403/0406 1/4SM +SN BLSN VV005
     FM040700 04010KT 2SM -SN BR SCT006 OVC012
     FM041500 08006KT P6SM BKN015 OVC025
     FM041900 13006KT P6SM SCT025 BKN040=



000
FTUS45 KBOU 031731
TAFAPA
TAF
KAPA 031731Z 0318/0418 03010KT 5SM -SN OVC010
      TEMPO 0318/0322 2SM -SN OVC008
     FM032200 07010KT 2SM -SN BR BKN008 OVC014
     FM040000 04009KT 2SM -SN BR BKN005 OVC010
      TEMPO 0400/0404 1SM -SN BR
     FM040400 02013G20KT 3/4SM -SN BR BKN005 OVC008
      TEMPO 0404/0407 1/4SM +SN BLSN VV003
     FM041200 02008KT 3SM -SN BR SCT008 OVC015
     FM041600 VRB05KT P6SM SCT015 BKN025=



000
FTUS45 KBOU 031731
TAFDEN
TAF
KDEN 031731Z 0318/0424 03013KT 3SM -SN OVC015
     FM032100 06011KT 2SM -SN BR SCT010 OVC015
     FM032300 09010KT 2SM -SN BR BKN006 OVC012
      TEMPO 0323/0403 1SM -SN BR
     FM040300 02015G22KT 3/4SM -SN BR BKN005 OVC008
      TEMPO 0403/0406 1/4SM +SN BLSN VV005
     FM040700 04010KT 2SM -SN BR SCT006 OVC012
     FM041500 08006KT P6SM BKN015 OVC025
     FM041900 13006KT P6SM SCT025 BKN040=



000
FTUS45 KBOU 031731
TAFAPA
TAF
KAPA 031731Z 0318/0418 03010KT 5SM -SN OVC010
      TEMPO 0318/0322 2SM -SN OVC008
     FM032200 07010KT 2SM -SN BR BKN008 OVC014
     FM040000 04009KT 2SM -SN BR BKN005 OVC010
      TEMPO 0400/0404 1SM -SN BR
     FM040400 02013G20KT 3/4SM -SN BR BKN005 OVC008
      TEMPO 0404/0407 1/4SM +SN BLSN VV003
     FM041200 02008KT 3SM -SN BR SCT008 OVC015
     FM041600 VRB05KT P6SM SCT015 BKN025=



000
FTUS45 KBOU 031731
TAFBJC
TAF
KBJC 031731Z 0318/0418 05009KT 3SM -SN OVC012
      TEMPO 0318/0321 1SM -SN VV008
     FM032100 07008KT 2SM -SN BR SCT006 OVC010
     FM032300 09008KT 2SM -SN BR BKN006 OVC012
      TEMPO 0323/0403 1SM -SN BR
     FM040300 36015G22KT 3/4SM -SN BR BKN005 OVC008
      TEMPO 0403/0406 1/4SM +SN BLSN VV005
     FM040700 04009KT 2SM -SN BR SCT006 OVC012
     FM041600 08006KT P6SM BKN010 OVC020=



000
FTUS45 KBOU 031731
TAFDEN
TAF
KDEN 031731Z 0318/0424 03013KT 3SM -SN OVC015
     FM032100 06011KT 2SM -SN BR SCT010 OVC015
     FM032300 09010KT 2SM -SN BR BKN006 OVC012
      TEMPO 0323/0403 1SM -SN BR
     FM040300 02015G22KT 3/4SM -SN BR BKN005 OVC008
      TEMPO 0403/0406 1/4SM +SN BLSN VV005
     FM040700 04010KT 2SM -SN BR SCT006 OVC012
     FM041500 08006KT P6SM BKN015 OVC025
     FM041900 13006KT P6SM SCT025 BKN040=



000
FTUS45 KBOU 031731
TAFBJC
TAF
KBJC 031731Z 0318/0418 05009KT 3SM -SN OVC012
      TEMPO 0318/0321 1SM -SN VV008
     FM032100 07008KT 2SM -SN BR SCT006 OVC010
     FM032300 09008KT 2SM -SN BR BKN006 OVC012
      TEMPO 0323/0403 1SM -SN BR
     FM040300 36015G22KT 3/4SM -SN BR BKN005 OVC008
      TEMPO 0403/0406 1/4SM +SN BLSN VV005
     FM040700 04009KT 2SM -SN BR SCT006 OVC012
     FM041600 08006KT P6SM BKN010 OVC020=



000
FTUS45 KBOU 031731
TAFDEN
TAF
KDEN 031731Z 0318/0424 03013KT 3SM -SN OVC015
     FM032100 06011KT 2SM -SN BR SCT010 OVC015
     FM032300 09010KT 2SM -SN BR BKN006 OVC012
      TEMPO 0323/0403 1SM -SN BR
     FM040300 02015G22KT 3/4SM -SN BR BKN005 OVC008
      TEMPO 0403/0406 1/4SM +SN BLSN VV005
     FM040700 04010KT 2SM -SN BR SCT006 OVC012
     FM041500 08006KT P6SM BKN015 OVC025
     FM041900 13006KT P6SM SCT025 BKN040=



000
FTUS45 KBOU 031731
TAFAPA
TAF
KAPA 031731Z 0318/0418 03010KT 5SM -SN OVC010
      TEMPO 0318/0322 2SM -SN OVC008
     FM032200 07010KT 2SM -SN BR BKN008 OVC014
     FM040000 04009KT 2SM -SN BR BKN005 OVC010
      TEMPO 0400/0404 1SM -SN BR
     FM040400 02013G20KT 3/4SM -SN BR BKN005 OVC008
      TEMPO 0404/0407 1/4SM +SN BLSN VV003
     FM041200 02008KT 3SM -SN BR SCT008 OVC015
     FM041600 VRB05KT P6SM SCT015 BKN025=



000
FTUS45 KBOU 031731
TAFAPA
TAF
KAPA 031731Z 0318/0418 03010KT 5SM -SN OVC010
      TEMPO 0318/0322 2SM -SN OVC008
     FM032200 07010KT 2SM -SN BR BKN008 OVC014
     FM040000 04009KT 2SM -SN BR BKN005 OVC010
      TEMPO 0400/0404 1SM -SN BR
     FM040400 02013G20KT 3/4SM -SN BR BKN005 OVC008
      TEMPO 0404/0407 1/4SM +SN BLSN VV003
     FM041200 02008KT 3SM -SN BR SCT008 OVC015
     FM041600 VRB05KT P6SM SCT015 BKN025=



000
FTUS45 KBOU 031731
TAFBJC
TAF
KBJC 031731Z 0318/0418 05009KT 3SM -SN OVC012
      TEMPO 0318/0321 1SM -SN VV008
     FM032100 07008KT 2SM -SN BR SCT006 OVC010
     FM032300 09008KT 2SM -SN BR BKN006 OVC012
      TEMPO 0323/0403 1SM -SN BR
     FM040300 36015G22KT 3/4SM -SN BR BKN005 OVC008
      TEMPO 0403/0406 1/4SM +SN BLSN VV005
     FM040700 04009KT 2SM -SN BR SCT006 OVC012
     FM041600 08006KT P6SM BKN010 OVC020=



000
FTUS45 KBOU 031731
TAFDEN
TAF
KDEN 031731Z 0318/0424 03013KT 3SM -SN OVC015
     FM032100 06011KT 2SM -SN BR SCT010 OVC015
     FM032300 09010KT 2SM -SN BR BKN006 OVC012
      TEMPO 0323/0403 1SM -SN BR
     FM040300 02015G22KT 3/4SM -SN BR BKN005 OVC008
      TEMPO 0403/0406 1/4SM +SN BLSN VV005
     FM040700 04010KT 2SM -SN BR SCT006 OVC012
     FM041500 08006KT P6SM BKN015 OVC025
     FM041900 13006KT P6SM SCT025 BKN040=



000
FTUS45 KBOU 031623 AAC
TAFDEN
TAF AMD
KDEN 031623Z 0316/0418 02013G18KT 3SM -SN OVC015
      TEMPO 0317/0321 1SM -SN OVC008
     FM032100 06011KT 2SM -SN BR SCT006 OVC015
     FM040000 04010KT 1SM -SN BR BKN006 OVC012
     FM040400 04010KT 3/4SM -SN BR BKN005 OVC008
     FM041200 04006KT 2SM -SN BR SCT006 OVC012
     FM041500 08006KT P6SM BKN015 OVC025=



000
FTUS45 KBOU 031623 AAC
TAFDEN
TAF AMD
KDEN 031623Z 0316/0418 02013G18KT 3SM -SN OVC015
      TEMPO 0317/0321 1SM -SN OVC008
     FM032100 06011KT 2SM -SN BR SCT006 OVC015
     FM040000 04010KT 1SM -SN BR BKN006 OVC012
     FM040400 04010KT 3/4SM -SN BR BKN005 OVC008
     FM041200 04006KT 2SM -SN BR SCT006 OVC012
     FM041500 08006KT P6SM BKN015 OVC025=



000
FTUS45 KBOU 031623 AAC
TAFDEN
TAF AMD
KDEN 031623Z 0316/0418 02013G18KT 3SM -SN OVC015
      TEMPO 0317/0321 1SM -SN OVC008
     FM032100 06011KT 2SM -SN BR SCT006 OVC015
     FM040000 04010KT 1SM -SN BR BKN006 OVC012
     FM040400 04010KT 3/4SM -SN BR BKN005 OVC008
     FM041200 04006KT 2SM -SN BR SCT006 OVC012
     FM041500 08006KT P6SM BKN015 OVC025=



000
FTUS45 KBOU 031543 AAB
TAFBJC
TAF AMD
KBJC 031543Z 0316/0412 36011KT P6SM VCSH SCT010 OVC020
      TEMPO 0316/0318 5SM -SN BR OVC010
     FM031800 01010KT 5SM -SN BR SCT008 OVC015
      TEMPO 0318/0320 2SM -SN BR OVC008
     FM032000 07010KT 2SM -SN BR SCT006 OVC014
     FM040000 04009KT 1SM -SN BR BKN005 OVC010
      TEMPO 0403/0407 1/2SM SN FZFG OVC003=



000
FTUS45 KBOU 031543 AAB
TAFBJC
TAF AMD
KBJC 031543Z 0316/0412 36011KT P6SM VCSH SCT010 OVC020
      TEMPO 0316/0318 5SM -SN BR OVC010
     FM031800 01010KT 5SM -SN BR SCT008 OVC015
      TEMPO 0318/0320 2SM -SN BR OVC008
     FM032000 07010KT 2SM -SN BR SCT006 OVC014
     FM040000 04009KT 1SM -SN BR BKN005 OVC010
      TEMPO 0403/0407 1/2SM SN FZFG OVC003=



000
FTUS45 KBOU 031532 AAC
TAFAPA
TAF AMD
KAPA 031532Z 0316/0412 02010KT P6SM VCSH BKN008 OVC012
      TEMPO 0316/0318 5SM -SN BR OVC008
     FM031800 02009KT 5SM -SN BR SCT008 OVC012
      TEMPO 0318/0322 2SM -SN OVC008
     FM032200 07014KT 2SM -SN BR BKN008 OVC014
     FM040000 04012KT 1SM -SN BR BKN005 OVC010
      TEMPO 0404/0408 1/2SM SN FZFG OVC003=



000
FTUS45 KBOU 031532 AAC
TAFAPA
TAF AMD
KAPA 031532Z 0316/0412 02010KT P6SM VCSH BKN008 OVC012
      TEMPO 0316/0318 5SM -SN BR OVC008
     FM031800 02009KT 5SM -SN BR SCT008 OVC012
      TEMPO 0318/0322 2SM -SN OVC008
     FM032200 07014KT 2SM -SN BR BKN008 OVC014
     FM040000 04012KT 1SM -SN BR BKN005 OVC010
      TEMPO 0404/0408 1/2SM SN FZFG OVC003=



000
FTUS45 KBOU 031532 AAC
TAFAPA
TAF AMD
KAPA 031532Z 0316/0412 02010KT P6SM VCSH BKN008 OVC012
      TEMPO 0316/0318 5SM -SN BR OVC008
     FM031800 02009KT 5SM -SN BR SCT008 OVC012
      TEMPO 0318/0322 2SM -SN OVC008
     FM032200 07014KT 2SM -SN BR BKN008 OVC014
     FM040000 04012KT 1SM -SN BR BKN005 OVC010
      TEMPO 0404/0408 1/2SM SN FZFG OVC003=



000
FTUS45 KBOU 031532 AAC
TAFAPA
TAF AMD
KAPA 031532Z 0316/0412 02010KT P6SM VCSH BKN008 OVC012
      TEMPO 0316/0318 5SM -SN BR OVC008
     FM031800 02009KT 5SM -SN BR SCT008 OVC012
      TEMPO 0318/0322 2SM -SN OVC008
     FM032200 07014KT 2SM -SN BR BKN008 OVC014
     FM040000 04012KT 1SM -SN BR BKN005 OVC010
      TEMPO 0404/0408 1/2SM SN FZFG OVC003=



000
FTUS45 KBOU 031530 AAB
TAFDEN
TAF AMD
KDEN 031530Z 0316/0418 02013G18KT P6SM VCSH OVC012
      TEMPO 0318/0322 3SM -SN OVC008
     FM032200 06011KT 3SM -SN BR SCT006 OVC015
     FM040000 04010KT 1SM -SN BR BKN006 OVC012
     FM040400 04010KT 3/4SM -SN BR BKN005 OVC008
     FM041200 04006KT 2SM -SN BR SCT006 OVC012
     FM041500 08006KT P6SM BKN015 OVC025=



000
FTUS45 KBOU 031530 AAB
TAFDEN
TAF AMD
KDEN 031530Z 0316/0418 02013G18KT P6SM VCSH OVC012
      TEMPO 0318/0322 3SM -SN OVC008
     FM032200 06011KT 3SM -SN BR SCT006 OVC015
     FM040000 04010KT 1SM -SN BR BKN006 OVC012
     FM040400 04010KT 3/4SM -SN BR BKN005 OVC008
     FM041200 04006KT 2SM -SN BR SCT006 OVC012
     FM041500 08006KT P6SM BKN015 OVC025=



000
FTUS45 KBOU 031530 AAB
TAFDEN
TAF AMD
KDEN 031530Z 0316/0418 02013G18KT P6SM VCSH OVC012
      TEMPO 0318/0322 3SM -SN OVC008
     FM032200 06011KT 3SM -SN BR SCT006 OVC015
     FM040000 04010KT 1SM -SN BR BKN006 OVC012
     FM040400 04010KT 3/4SM -SN BR BKN005 OVC008
     FM041200 04006KT 2SM -SN BR SCT006 OVC012
     FM041500 08006KT P6SM BKN015 OVC025=



000
FTUS45 KBOU 031530 AAB
TAFDEN
TAF AMD
KDEN 031530Z 0316/0418 02013G18KT P6SM VCSH OVC012
      TEMPO 0318/0322 3SM -SN OVC008
     FM032200 06011KT 3SM -SN BR SCT006 OVC015
     FM040000 04010KT 1SM -SN BR BKN006 OVC012
     FM040400 04010KT 3/4SM -SN BR BKN005 OVC008
     FM041200 04006KT 2SM -SN BR SCT006 OVC012
     FM041500 08006KT P6SM BKN015 OVC025=



000
FTUS45 KBOU 031439 AAB
TAFAPA
TAF AMD
KAPA 031439Z 0315/0412 01015G25KT P6SM VCSH OVC008
     FM031510 04014KT P6SM VCSH OVC010
      TEMPO 0318/0322 2SM -SN OVC008
     FM032200 07014KT 2SM -SN BR BKN008 OVC014
     FM040000 04012KT 1SM -SN BR BKN005 OVC010
      TEMPO 0404/0408 1/2SM SN FZFG OVC003=



000
FTUS45 KBOU 031439 AAB
TAFAPA
TAF AMD
KAPA 031439Z 0315/0412 01015G25KT P6SM VCSH OVC008
     FM031510 04014KT P6SM VCSH OVC010
      TEMPO 0318/0322 2SM -SN OVC008
     FM032200 07014KT 2SM -SN BR BKN008 OVC014
     FM040000 04012KT 1SM -SN BR BKN005 OVC010
      TEMPO 0404/0408 1/2SM SN FZFG OVC003=



000
FTUS45 KBOU 031404 AAA
TAFDEN
TAF AMD
KDEN 031404Z 0314/0418 04016G25KT P6SM BKN010
     FM031600 04013KT P6SM VCSH OVC010
      TEMPO 0319/0322 3SM -SN OVC008
     FM032200 06014KT 3SM -SN BR SCT006 OVC015
     FM040000 04012KT 1SM -SN BR BKN006 OVC012
     FM040400 04010KT 3/4SM -SN BR BKN005 OVC008
     FM041200 04006KT 2SM -SN BR SCT006 OVC012
     FM041500 08006KT P6SM BKN015 OVC025=



000
FTUS45 KBOU 031404 AAA
TAFDEN
TAF AMD
KDEN 031404Z 0314/0418 04016G25KT P6SM BKN010
     FM031600 04013KT P6SM VCSH OVC010
      TEMPO 0319/0322 3SM -SN OVC008
     FM032200 06014KT 3SM -SN BR SCT006 OVC015
     FM040000 04012KT 1SM -SN BR BKN006 OVC012
     FM040400 04010KT 3/4SM -SN BR BKN005 OVC008
     FM041200 04006KT 2SM -SN BR SCT006 OVC012
     FM041500 08006KT P6SM BKN015 OVC025=



000
FTUS45 KBOU 031404 AAA
TAFDEN
TAF AMD
KDEN 031404Z 0314/0418 04016G25KT P6SM BKN010
     FM031600 04013KT P6SM VCSH OVC010
      TEMPO 0319/0322 3SM -SN OVC008
     FM032200 06014KT 3SM -SN BR SCT006 OVC015
     FM040000 04012KT 1SM -SN BR BKN006 OVC012
     FM040400 04010KT 3/4SM -SN BR BKN005 OVC008
     FM041200 04006KT 2SM -SN BR SCT006 OVC012
     FM041500 08006KT P6SM BKN015 OVC025=



000
FTUS45 KBOU 031207 AAA
TAFBJC
TAF AMD
KBJC 031207Z 0312/0412 25012G20KT P6SM SCT100
     FM031300 36017G25KT P6SM SCT020 BKN100
     FM031600 03012KT 5SM -SN SCT008 OVC016
      TEMPO 0318/0320 2SM -SN BR OVC008
     FM032000 07010KT 2SM -SN BR SCT006 OVC014
     FM040000 04009KT 1SM -SN BR BKN005 OVC010
      TEMPO 0403/0407 1/2SM SN FZFG OVC003=



000
FTUS45 KBOU 031207 AAA
TAFAPA
TAF AMD
KAPA 031207Z 0312/0412 30009KT P6SM FEW120
     FM031330 01017G25KT P6SM SCT020 BKN100
     FM031500 04014G22KT P6SM VCSH SCT008 OVC020
      TEMPO 0318/0322 2SM -SN OVC008
     FM032200 07014KT 2SM -SN BR BKN008 OVC014
     FM040000 04012KT 1SM -SN BR BKN005 OVC010
      TEMPO 0404/0408 1/2SM SN FZFG OVC003=



000
FTUS45 KBOU 031207 AAA
TAFAPA
TAF AMD
KAPA 031207Z 0312/0412 30009KT P6SM FEW120
     FM031330 01017G25KT P6SM SCT020 BKN100
     FM031500 04014G22KT P6SM VCSH SCT008 OVC020
      TEMPO 0318/0322 2SM -SN OVC008
     FM032200 07014KT 2SM -SN BR BKN008 OVC014
     FM040000 04012KT 1SM -SN BR BKN005 OVC010
      TEMPO 0404/0408 1/2SM SN FZFG OVC003=



000
FTUS45 KBOU 031207 AAA
TAFBJC
TAF AMD
KBJC 031207Z 0312/0412 25012G20KT P6SM SCT100
     FM031300 36017G25KT P6SM SCT020 BKN100
     FM031600 03012KT 5SM -SN SCT008 OVC016
      TEMPO 0318/0320 2SM -SN BR OVC008
     FM032000 07010KT 2SM -SN BR SCT006 OVC014
     FM040000 04009KT 1SM -SN BR BKN005 OVC010
      TEMPO 0403/0407 1/2SM SN FZFG OVC003=



000
FTUS45 KBOU 031207 AAA
TAFBJC
TAF AMD
KBJC 031207Z 0312/0412 25012G20KT P6SM SCT100
     FM031300 36017G25KT P6SM SCT020 BKN100
     FM031600 03012KT 5SM -SN SCT008 OVC016
      TEMPO 0318/0320 2SM -SN BR OVC008
     FM032000 07010KT 2SM -SN BR SCT006 OVC014
     FM040000 04009KT 1SM -SN BR BKN005 OVC010
      TEMPO 0403/0407 1/2SM SN FZFG OVC003=



000
FTUS45 KBOU 031207 AAA
TAFAPA
TAF AMD
KAPA 031207Z 0312/0412 30009KT P6SM FEW120
     FM031330 01017G25KT P6SM SCT020 BKN100
     FM031500 04014G22KT P6SM VCSH SCT008 OVC020
      TEMPO 0318/0322 2SM -SN OVC008
     FM032200 07014KT 2SM -SN BR BKN008 OVC014
     FM040000 04012KT 1SM -SN BR BKN005 OVC010
      TEMPO 0404/0408 1/2SM SN FZFG OVC003=



000
FTUS45 KBOU 031207 AAA
TAFAPA
TAF AMD
KAPA 031207Z 0312/0412 30009KT P6SM FEW120
     FM031330 01017G25KT P6SM SCT020 BKN100
     FM031500 04014G22KT P6SM VCSH SCT008 OVC020
      TEMPO 0318/0322 2SM -SN OVC008
     FM032200 07014KT 2SM -SN BR BKN008 OVC014
     FM040000 04012KT 1SM -SN BR BKN005 OVC010
      TEMPO 0404/0408 1/2SM SN FZFG OVC003=



000
FTUS45 KBOU 031207 AAA
TAFBJC
TAF AMD
KBJC 031207Z 0312/0412 25012G20KT P6SM SCT100
     FM031300 36017G25KT P6SM SCT020 BKN100
     FM031600 03012KT 5SM -SN SCT008 OVC016
      TEMPO 0318/0320 2SM -SN BR OVC008
     FM032000 07010KT 2SM -SN BR SCT006 OVC014
     FM040000 04009KT 1SM -SN BR BKN005 OVC010
      TEMPO 0403/0407 1/2SM SN FZFG OVC003=



000
FTUS45 KBOU 031159
TAFAPA
TAF
KAPA 031159Z 0312/0412 30009KT P6SM FEW100 BKN180
     FM031330 01017G25KT P6SM SCT020 SCT120 BKN200
     FM031500 02013KT P6SM VCSH SCT008 OVC020
      TEMPO 0318/0322 2SM -SN OVC008
     FM032200 07014KT 2SM -SN BR SCT008 OVC020
     FM040100 02012KT 1SM -SN BR SCT005 BKN008 OVC020=



000
FTUS45 KBOU 031159
TAFBJC
TAF
KBJC 031159Z 0312/0412 25012G20KT P6SM SCT100
     FM031300 36017G25KT P6SM SCT020 BKN100
     FM031600 03011KT 5SM -SN SCT008 OVC016
      TEMPO 0318/0320 2SM -SN BR OVC008
     FM032000 07014KT 3SM -SN BR SCT008 OVC016
     FM040000 04009KT 1SM -SN BR OVC008=



000
FTUS45 KBOU 031159
TAFAPA
TAF
KAPA 031159Z 0312/0412 30009KT P6SM FEW100 BKN180
     FM031330 01017G25KT P6SM SCT020 SCT120 BKN200
     FM031500 02013KT P6SM VCSH SCT008 OVC020
      TEMPO 0318/0322 2SM -SN OVC008
     FM032200 07014KT 2SM -SN BR SCT008 OVC020
     FM040100 02012KT 1SM -SN BR SCT005 BKN008 OVC020=



000
FTUS45 KBOU 031159
TAFBJC
TAF
KBJC 031159Z 0312/0412 25012G20KT P6SM SCT100
     FM031300 36017G25KT P6SM SCT020 BKN100
     FM031600 03011KT 5SM -SN SCT008 OVC016
      TEMPO 0318/0320 2SM -SN BR OVC008
     FM032000 07014KT 3SM -SN BR SCT008 OVC016
     FM040000 04009KT 1SM -SN BR OVC008=



000
FTUS45 KBOU 031158
TAFDEN
TAF
KDEN 031158Z 0312/0418 27020G27KT P6SM FEW120
     FM031230 01017G27KT P6SM SCT020 BKN100
     FM031500 04014G22KT P6SM VCSH SCT008 OVC020
      TEMPO 0319/0322 3SM -SN OVC008
     FM032200 06014KT 3SM -SN BR SCT006 OVC015
     FM040000 04012KT 1SM -SN BR BKN006 OVC012
     FM040400 04010KT 3/4SM -SN BR BKN005 OVC008
     FM041200 04006KT 2SM -SN BR SCT006 OVC012
     FM041500 08006KT P6SM BKN015 OVC025=



000
FTUS45 KBOU 031158
TAFDEN
TAF
KDEN 031158Z 0312/0418 27020G27KT P6SM FEW120
     FM031230 01017G27KT P6SM SCT020 BKN100
     FM031500 04014G22KT P6SM VCSH SCT008 OVC020
      TEMPO 0319/0322 3SM -SN OVC008
     FM032200 06014KT 3SM -SN BR SCT006 OVC015
     FM040000 04012KT 1SM -SN BR BKN006 OVC012
     FM040400 04010KT 3/4SM -SN BR BKN005 OVC008
     FM041200 04006KT 2SM -SN BR SCT006 OVC012
     FM041500 08006KT P6SM BKN015 OVC025=



    US Dept of Commerce
    National Oceanic and Atmospheric Administration
    National Weather Service
    1325 East West Highway
    Silver Spring, MD 20910
    Page Author: NWS Internet Services Team
Disclaimer
Information Quality
Credits
Glossary
Privacy Policy
Freedom of Information Act (FOIA)
About Us
Career Opportunities